Time,TemperatureF,DewpointF,PressureIn,WindDirection,WindDirectionDegrees,WindSpeedMPH,WindSpeedGustMPH,Humidity,HourlyPrecipIn,Conditions,Clouds,dailyrainin,SoftwareType,DateUTC
2013-03-02 00:00:00,55.4,32.0,29.86,East,90,0.4,1.3,41,0.00,,,0.00,WUHU216HW,2013-03-02 08:00:00,
2013-03-02 00:05:00,55.3,31.9,29.86,North,0,1.1,1.3,41,0.00,,,0.00,WUHU216HW,2013-03-02 08:05:00,
2013-03-02 00:10:00,55.1,32.3,29.87,NNE,23,0.0,1.3,42,0.00,,,0.00,WUHU216HW,2013-03-02 08:10:00,
2013-03-02 00:15:00,55.1,32.9,29.87,NW,315,0.0,1.1,43,0.00,,,0.00,WUHU216HW,2013-03-02 08:15:00,
2013-03-02 00:20:00,54.7,33.1,29.87,ENE,68,1.1,1.1,44,0.00,,,0.00,WUHU216HW,2013-03-02 08:20:00,
2013-03-02 00:25:00,54.4,32.8,29.87,NE,45,0.4,1.1,44,0.00,,,0.00,WUHU216HW,2013-03-02 08:25:00,
2013-03-02 00:30:00,54.2,32.6,29.87,NE,45,0.0,1.3,44,0.00,,,0.00,WUHU216HW,2013-03-02 08:30:00,
2013-03-02 00:35:00,54.0,32.4,29.88,WNW,293,0.0,1.3,44,0.00,,,0.00,WUHU216HW,2013-03-02 08:35:00,
2013-03-02 00:40:00,53.8,33.4,29.88,NNE,23,0.7,0.7,46,0.00,,,0.00,WUHU216HW,2013-03-02 08:40:00,
2013-03-02 00:45:00,53.5,33.0,29.87,NNE,23,0.9,1.8,46,0.00,,,0.00,WUHU216HW,2013-03-02 08:45:00,
2013-03-02 00:50:00,53.6,33.2,29.87,ENE,68,0.4,1.8,46,0.00,,,0.00,WUHU216HW,2013-03-02 08:50:00,
2013-03-02 00:55:00,53.6,33.2,29.87,NE,45,0.4,1.1,46,0.00,,,0.00,WUHU216HW,2013-03-02 08:55:00,
2013-03-02 01:00:00,53.6,32.7,29.87,ENE,68,1.1,1.3,45,0.00,,,0.00,WUHU216HW,2013-03-02 09:00:00,
2013-03-02 01:05:00,53.6,32.7,29.87,East,90,1.1,1.3,45,0.00,,,0.00,WUHU216HW,2013-03-02 09:05:00,
2013-03-02 01:10:00,53.6,32.7,29.87,NNE,23,1.8,2.0,45,0.00,,,0.00,WUHU216HW,2013-03-02 09:10:00,
2013-03-02 01:15:00,53.6,32.7,29.86,NE,45,1.6,2.5,45,0.00,,,0.00,WUHU216HW,2013-03-02 09:15:00,
2013-03-02 01:20:00,53.6,32.7,29.86,NE,45,1.8,2.5,45,0.00,,,0.00,WUHU216HW,2013-03-02 09:20:00,
2013-03-02 01:25:00,53.8,32.3,29.86,NNE,23,0.9,2.0,44,0.00,,,0.00,WUHU216HW,2013-03-02 09:25:00,
2013-03-02 01:30:00,53.8,32.9,29.86,ENE,68,1.1,1.8,45,0.00,,,0.00,WUHU216HW,2013-03-02 09:30:00,
2013-03-02 01:35:00,53.8,32.3,29.86,ENE,68,0.7,2.2,44,0.00,,,0.00,WUHU216HW,2013-03-02 09:35:00,
2013-03-02 01:40:00,54.0,32.4,29.86,NE,45,1.8,2.2,44,0.00,,,0.00,WUHU216HW,2013-03-02 09:40:00,
2013-03-02 01:45:00,54.0,32.4,29.86,NE,45,1.8,1.8,44,0.00,,,0.00,WUHU216HW,2013-03-02 09:45:00,
2013-03-02 01:50:00,54.4,32.2,29.85,NNE,23,1.8,2.5,43,0.00,,,0.00,WUHU216HW,2013-03-02 09:50:00,
2013-03-02 01:55:00,56.0,31.3,29.85,NE,45,1.3,2.5,39,0.00,,,0.00,WUHU216HW,2013-03-02 09:55:00,
2013-03-02 02:00:00,58.3,29.9,29.85,ENE,68,2.5,2.5,34,0.00,,,0.00,WUHU216HW,2013-03-02 10:00:00,
2013-03-02 02:05:00,59.8,29.7,29.84,East,90,1.8,2.7,32,0.00,,,0.00,WUHU216HW,2013-03-02 10:05:00,
2013-03-02 02:10:00,61.0,28.4,29.84,ENE,68,2.9,3.1,29,0.00,,,0.00,WUHU216HW,2013-03-02 10:10:00,
2013-03-02 02:15:00,62.8,28.0,29.84,ENE,68,4.3,4.3,27,0.00,,,0.00,WUHU216HW,2013-03-02 10:15:00,
2013-03-02 02:20:00,64.8,27.7,29.84,NNE,23,2.5,4.3,25,0.00,,,0.00,WUHU216HW,2013-03-02 10:20:00,
2013-03-02 02:25:00,66.2,27.0,29.83,ENE,68,6.3,6.3,23,0.00,,,0.00,WUHU216HW,2013-03-02 10:25:00,
2013-03-02 02:30:00,67.0,27.6,29.83,ENE,68,4.3,8.1,23,0.00,,,0.00,WUHU216HW,2013-03-02 10:30:00,
2013-03-02 02:36:00,67.3,26.9,29.83,ESE,113,6.3,8.1,22,0.00,,,0.00,WUHU216HW,2013-03-02 10:36:00,
2013-03-02 02:41:00,68.2,27.7,29.83,ENE,68,3.8,6.3,22,0.00,,,0.00,WUHU216HW,2013-03-02 10:41:00,
2013-03-02 02:46:00,68.2,26.7,29.83,ESE,113,4.9,6.7,21,0.00,,,0.00,WUHU216HW,2013-03-02 10:46:00,
2013-03-02 02:51:00,68.8,27.1,29.83,ENE,68,7.2,7.2,21,0.00,,,0.00,WUHU216HW,2013-03-02 10:51:00,
2013-03-02 02:56:00,69.1,27.5,29.83,ESE,113,5.1,7.2,21,0.00,,,0.00,WUHU216HW,2013-03-02 10:56:00,
2013-03-02 03:01:00,68.9,26.3,29.83,ENE,68,4.5,7.2,20,0.00,,,0.00,WUHU216HW,2013-03-02 11:01:00,
2013-03-02 03:06:00,69.5,25.1,29.83,NNE,23,3.4,8.1,19,0.00,,,0.00,WUHU216HW,2013-03-02 11:06:00,
2013-03-02 03:11:00,69.5,25.1,29.83,East,90,4.7,8.1,19,0.00,,,0.00,WUHU216HW,2013-03-02 11:11:00,
2013-03-02 03:16:00,69.5,25.1,29.83,ESE,113,4.3,6.0,19,0.00,,,0.00,WUHU216HW,2013-03-02 11:16:00,
2013-03-02 03:21:00,69.7,25.2,29.83,East,90,5.1,8.7,19,0.00,,,0.00,WUHU216HW,2013-03-02 11:21:00,
2013-03-02 03:26:00,69.7,25.2,29.83,East,90,2.9,8.7,19,0.00,,,0.00,WUHU216HW,2013-03-02 11:26:00,
2013-03-02 03:31:00,69.5,25.1,29.83,ESE,113,4.0,6.3,19,0.00,,,0.00,WUHU216HW,2013-03-02 11:31:00,
2013-03-02 03:36:00,69.7,25.2,29.83,East,90,3.4,6.0,19,0.00,,,0.00,WUHU216HW,2013-03-02 11:36:00,
2013-03-02 03:41:00,69.8,25.4,29.82,ENE,68,3.6,6.5,19,0.00,,,0.00,WUHU216HW,2013-03-02 11:41:00,
2013-03-02 03:45:00,69.5,25.1,29.82,ESE,113,4.9,6.5,19,0.00,,,0.00,WUHU216HW,2013-03-02 11:45:00,
2013-03-02 03:50:00,69.5,25.1,29.82,ENE,68,4.7,7.2,19,0.00,,,0.00,WUHU216HW,2013-03-02 11:50:00,
2013-03-02 03:56:00,69.5,25.1,29.83,NE,45,5.1,7.2,19,0.00,,,0.00,WUHU216HW,2013-03-02 11:56:00,
2013-03-02 04:01:00,69.7,25.2,29.82,ENE,68,5.4,6.7,19,0.00,,,0.00,WUHU216HW,2013-03-02 12:01:00,
2013-03-02 04:06:00,69.8,25.4,29.83,ESE,113,4.7,6.7,19,0.00,,,0.00,WUHU216HW,2013-03-02 12:06:00,
2013-03-02 04:11:00,69.8,25.4,29.83,NE,45,4.3,6.7,19,0.00,,,0.00,WUHU216HW,2013-03-02 12:11:00,
2013-03-02 04:16:00,69.8,25.4,29.83,ENE,68,6.5,6.7,19,0.00,,,0.00,WUHU216HW,2013-03-02 12:16:00,
2013-03-02 04:21:00,69.8,25.4,29.82,East,90,3.4,6.5,19,0.00,,,0.00,WUHU216HW,2013-03-02 12:21:00,
2013-03-02 04:26:00,69.7,25.2,29.82,East,90,4.7,6.5,19,0.00,,,0.00,WUHU216HW,2013-03-02 12:26:00,
2013-03-02 04:31:00,69.5,26.7,29.83,ESE,113,3.4,6.5,20,0.00,,,0.00,WUHU216HW,2013-03-02 12:31:00,
2013-03-02 04:36:00,69.3,26.6,29.83,ENE,68,4.9,4.9,20,0.00,,,0.00,WUHU216HW,2013-03-02 12:36:00,
2013-03-02 04:41:00,69.3,27.5,29.83,East,90,4.0,5.8,21,0.00,,,0.00,WUHU216HW,2013-03-02 12:41:00,
2013-03-02 04:46:00,69.3,26.6,29.83,East,90,4.3,5.8,20,0.00,,,0.00,WUHU216HW,2013-03-02 12:46:00,
2013-03-02 04:51:00,69.1,27.5,29.83,ENE,68,4.5,6.0,21,0.00,,,0.00,WUHU216HW,2013-03-02 12:51:00,
2013-03-02 04:56:00,68.8,27.1,29.83,ENE,68,3.6,6.0,21,0.00,,,0.00,WUHU216HW,2013-03-02 12:56:00,
2013-03-02 05:01:00,68.8,27.1,29.83,NE,45,4.0,6.9,21,0.00,,,0.00,WUHU216HW,2013-03-02 13:01:00,
2013-03-02 05:06:00,68.8,27.1,29.83,ENE,68,4.7,7.2,21,0.00,,,0.00,WUHU216HW,2013-03-02 13:06:00,
2013-03-02 05:11:00,68.9,27.3,29.83,ENE,68,2.0,7.2,21,0.00,,,0.00,WUHU216HW,2013-03-02 13:11:00,
2013-03-02 05:16:00,69.1,27.5,29.83,ENE,68,3.4,6.3,21,0.00,,,0.00,WUHU216HW,2013-03-02 13:16:00,
2013-03-02 05:21:00,69.1,27.5,29.83,ENE,68,4.0,6.3,21,0.00,,,0.00,WUHU216HW,2013-03-02 13:21:00,
2013-03-02 05:26:00,68.9,27.3,29.83,ENE,68,3.6,4.9,21,0.00,,,0.00,WUHU216HW,2013-03-02 13:26:00,
2013-03-02 05:31:00,68.9,27.3,29.83,ENE,68,4.0,6.0,21,0.00,,,0.00,WUHU216HW,2013-03-02 13:31:00,
2013-03-02 05:36:00,69.1,26.5,29.83,NE,45,2.7,6.0,20,0.00,,,0.00,WUHU216HW,2013-03-02 13:36:00,
2013-03-02 05:41:00,69.1,27.5,29.83,East,90,4.0,4.7,21,0.00,,,0.00,WUHU216HW,2013-03-02 13:41:00,
2013-03-02 05:46:00,68.9,27.3,29.83,ENE,68,3.1,4.9,21,0.00,,,0.00,WUHU216HW,2013-03-02 13:46:00,
2013-03-02 05:51:00,68.8,27.1,29.83,East,90,2.2,4.9,21,0.00,,,0.00,WUHU216HW,2013-03-02 13:51:00,
2013-03-02 05:56:00,68.6,27.0,29.83,ESE,113,1.1,4.0,21,0.00,,,0.00,WUHU216HW,2013-03-02 13:56:00,
2013-03-02 06:01:00,68.4,26.8,29.83,ENE,68,2.5,4.0,21,0.00,,,0.00,WUHU216HW,2013-03-02 14:01:00,
2013-03-02 06:06:00,68.4,26.8,29.83,NE,45,3.1,4.5,21,0.00,,,0.00,WUHU216HW,2013-03-02 14:06:00,
2013-03-02 06:11:00,68.4,26.8,29.83,ENE,68,4.0,4.5,21,0.00,,,0.00,WUHU216HW,2013-03-02 14:11:00,
2013-03-02 06:16:00,68.2,27.7,29.84,ENE,68,2.0,4.0,22,0.00,,,0.00,WUHU216HW,2013-03-02 14:16:00,
2013-03-02 06:21:00,67.9,27.4,29.84,NE,45,2.9,4.0,22,0.00,,,0.00,WUHU216HW,2013-03-02 14:21:00,
2013-03-02 06:26:00,67.3,27.9,29.84,North,0,0.7,3.8,23,0.00,,,0.00,WUHU216HW,2013-03-02 14:26:00,
2013-03-02 06:31:00,65.5,29.3,29.84,West,270,0.0,2.9,26,0.00,,,0.00,WUHU216HW,2013-03-02 14:31:00,
2013-03-02 06:36:00,63.9,29.0,29.84,WNW,293,1.1,1.6,27,0.00,,,0.00,WUHU216HW,2013-03-02 14:36:00,
2013-03-02 06:41:00,62.8,29.0,29.84,NNW,338,0.2,1.6,28,0.00,,,0.00,WUHU216HW,2013-03-02 14:41:00,
2013-03-02 06:46:00,62.3,29.5,29.84,NNW,338,0.0,1.6,29,0.00,,,0.00,WUHU216HW,2013-03-02 14:46:00,
2013-03-02 06:51:00,61.9,30.9,29.84,ENE,68,0.4,1.3,31,0.00,,,0.00,WUHU216HW,2013-03-02 14:51:00,
2013-03-02 06:56:00,61.6,30.5,29.85,NNE,23,1.6,1.6,31,0.00,,,0.00,WUHU216HW,2013-03-02 14:56:00,
2013-03-02 07:01:00,61.4,31.1,29.85,NNE,23,1.3,1.6,32,0.00,,,0.00,WUHU216HW,2013-03-02 15:01:00,
2013-03-02 07:06:00,61.4,31.1,29.85,NW,315,0.0,1.6,32,0.00,,,0.00,WUHU216HW,2013-03-02 15:06:00,
2013-03-02 07:11:00,61.6,31.2,29.85,NW,315,0.0,1.1,32,0.00,,,0.00,WUHU216HW,2013-03-02 15:11:00,
2013-03-02 07:16:00,61.9,31.6,29.85,West,270,0.4,0.4,32,0.00,,,0.00,WUHU216HW,2013-03-02 15:16:00,
2013-03-02 07:21:00,62.3,32.6,29.85,SW,225,0.0,1.1,33,0.00,,,0.00,WUHU216HW,2013-03-02 15:21:00,
2013-03-02 07:26:00,62.5,32.8,29.86,NNW,338,0.2,1.1,33,0.00,,,0.00,WUHU216HW,2013-03-02 15:26:00,
2013-03-02 07:31:00,62.6,33.7,29.85,North,0,1.1,2.0,34,0.00,,,0.00,WUHU216HW,2013-03-02 15:31:00,
2013-03-02 07:36:00,63.0,33.3,29.86,NNE,23,0.4,2.0,33,0.00,,,0.00,WUHU216HW,2013-03-02 15:36:00,
2013-03-02 07:41:00,63.7,33.9,29.86,NNE,23,0.0,1.1,33,0.00,,,0.00,WUHU216HW,2013-03-02 15:41:00,
2013-03-02 07:46:00,64.3,34.4,29.86,North,0,0.0,0.7,33,0.00,,,0.00,WUHU216HW,2013-03-02 15:46:00,
2013-03-02 07:51:00,64.8,34.9,29.86,NNE,23,0.4,0.4,33,0.00,,,0.00,WUHU216HW,2013-03-02 15:51:00,
2013-03-02 07:56:00,65.3,35.4,29.86,NE,45,0.0,1.1,33,0.00,,,0.00,WUHU216HW,2013-03-02 15:56:00,
2013-03-02 08:01:00,65.9,35.8,29.86,NW,315,0.2,1.3,33,0.00,,,0.00,WUHU216HW,2013-03-02 16:01:00,
2013-03-02 08:05:00,66.4,35.7,29.86,WNW,293,0.7,1.3,32,0.00,,,0.00,WUHU216HW,2013-03-02 16:05:00,
2013-03-02 08:10:00,66.8,35.9,29.86,SW,225,1.8,1.8,32,0.00,,,0.00,WUHU216HW,2013-03-02 16:10:00,
2013-03-02 08:15:00,67.1,35.5,29.86,WSW,248,0.0,1.8,31,0.00,,,0.00,WUHU216HW,2013-03-02 16:15:00,
2013-03-02 08:20:00,67.7,36.6,29.86,WNW,293,0.4,1.8,32,0.00,,,0.00,WUHU216HW,2013-03-02 16:20:00,
2013-03-02 08:25:00,68.0,36.9,29.86,NW,315,0.4,1.1,32,0.00,,,0.00,WUHU216HW,2013-03-02 16:25:00,
2013-03-02 08:30:00,68.4,36.6,29.87,NNW,338,2.0,2.0,31,0.00,,,0.00,WUHU216HW,2013-03-02 16:30:00,
2013-03-02 08:36:00,68.6,36.7,29.87,NNW,338,0.7,2.0,31,0.00,,,0.00,WUHU216HW,2013-03-02 16:36:00,
2013-03-02 08:41:00,69.1,37.2,29.86,NNW,338,0.7,2.0,31,0.00,,,0.00,WUHU216HW,2013-03-02 16:41:00,
2013-03-02 08:46:00,69.7,37.6,29.87,NW,315,0.4,1.3,31,0.00,,,0.00,WUHU216HW,2013-03-02 16:46:00,
2013-03-02 08:51:00,70.0,37.3,29.86,NNW,338,0.4,1.1,30,0.00,,,0.00,WUHU216HW,2013-03-02 16:51:00,
2013-03-02 08:56:00,70.4,37.5,29.86,WNW,293,0.4,0.9,30,0.00,,,0.00,WUHU216HW,2013-03-02 16:56:00,
2013-03-02 09:01:00,70.7,37.9,29.86,NNW,338,1.1,1.1,30,0.00,,,0.00,WUHU216HW,2013-03-02 17:01:00,
2013-03-02 09:06:00,71.5,37.5,29.86,West,270,0.0,1.1,29,0.00,,,0.00,WUHU216HW,2013-03-02 17:06:00,
2013-03-02 09:11:00,72.0,38.0,29.86,West,270,0.9,1.8,29,0.00,,,0.00,WUHU216HW,2013-03-02 17:11:00,
2013-03-02 09:15:00,72.4,38.3,29.86,SSW,203,0.9,1.8,29,0.00,,,0.00,WUHU216HW,2013-03-02 17:15:00,
2013-03-02 09:20:00,73.1,38.9,29.86,SSW,203,1.3,1.8,29,0.00,,,0.00,WUHU216HW,2013-03-02 17:20:00,
2013-03-02 09:25:00,73.4,38.2,29.86,SW,225,2.2,2.2,28,0.00,,,0.00,WUHU216HW,2013-03-02 17:25:00,
2013-03-02 09:30:00,74.0,39.6,29.86,WSW,248,3.4,4.5,29,0.00,,,0.00,WUHU216HW,2013-03-02 17:30:00,
2013-03-02 09:35:00,73.1,37.8,29.87,West,270,1.1,4.5,28,0.00,,,0.00,WUHU216HW,2013-03-02 17:35:00,
2013-03-02 09:40:00,72.0,36.9,29.87,SW,225,2.9,4.0,28,0.00,,,0.00,WUHU216HW,2013-03-02 17:40:00,
2013-03-02 09:45:00,72.0,39.0,29.87,SW,225,2.9,4.5,30,0.00,,,0.00,WUHU216HW,2013-03-02 17:45:00,
2013-03-02 09:50:00,72.0,40.5,29.87,West,270,1.1,4.5,32,0.00,,,0.00,WUHU216HW,2013-03-02 17:50:00,
2013-03-02 09:55:00,71.6,39.4,29.87,WNW,293,1.3,3.4,31,0.00,,,0.00,WUHU216HW,2013-03-02 17:55:00,
2013-03-02 10:00:00,70.9,39.5,29.87,West,270,1.1,2.9,32,0.00,,,0.00,WUHU216HW,2013-03-02 18:00:00,
2013-03-02 10:05:00,70.6,40.0,29.87,West,270,0.7,3.6,33,0.00,,,0.00,WUHU216HW,2013-03-02 18:05:00,
2013-03-02 10:10:00,70.2,39.6,29.87,West,270,1.1,3.6,33,0.00,,,0.00,WUHU216HW,2013-03-02 18:10:00,
2013-03-02 10:15:00,70.2,38.9,29.87,North,0,0.9,2.5,32,0.00,,,0.00,WUHU216HW,2013-03-02 18:15:00,
2013-03-02 10:21:00,70.4,39.8,29.86,SSW,203,2.5,2.5,33,0.00,,,0.00,WUHU216HW,2013-03-02 18:21:00,
2013-03-02 10:26:00,70.9,41.1,29.87,WSW,248,2.5,4.0,34,0.00,,,0.00,WUHU216HW,2013-03-02 18:26:00,
2013-03-02 10:31:00,71.6,41.0,29.86,West,270,2.0,4.0,33,0.00,,,0.00,WUHU216HW,2013-03-02 18:31:00,
2013-03-02 10:36:00,72.0,41.9,29.87,WSW,248,3.1,3.4,34,0.00,,,0.00,WUHU216HW,2013-03-02 18:36:00,
2013-03-02 10:41:00,72.4,40.8,29.87,WSW,248,0.4,4.3,32,0.00,,,0.00,WUHU216HW,2013-03-02 18:41:00,
2013-03-02 10:46:00,72.4,40.1,29.86,WSW,248,1.6,4.5,31,0.00,,,0.00,WUHU216HW,2013-03-02 18:46:00,
2013-03-02 10:51:00,72.5,40.1,29.86,WSW,248,3.4,4.5,31,0.00,,,0.00,WUHU216HW,2013-03-02 18:51:00,
2013-03-02 10:56:00,72.7,40.3,29.86,SW,225,4.0,4.7,31,0.00,,,0.00,WUHU216HW,2013-03-02 18:56:00,
2013-03-02 11:01:00,72.9,39.7,29.86,SW,225,3.8,4.7,30,0.00,,,0.00,WUHU216HW,2013-03-02 19:01:00,
2013-03-02 11:03:00,73.1,39.9,29.86,WSW,248,1.3,4.7,30,0.00,,,0.00,WUHU216HW,2013-03-02 19:03:00,
2013-03-02 11:04:00,73.1,39.9,29.86,WNW,293,1.1,4.7,30,0.00,,,0.00,WUHU216HW,2013-03-02 19:04:00,
2013-03-02 11:05:00,73.1,40.6,29.87,WSW,248,4.0,4.5,31,0.00,,,0.00,WUHU216HW,2013-03-02 19:05:00,
2013-03-02 11:06:00,73.1,40.6,29.86,WSW,248,4.0,4.9,31,0.00,,,0.00,WUHU216HW,2013-03-02 19:06:00,
2013-03-02 11:08:00,73.1,40.6,29.86,SW,225,3.8,5.4,31,0.00,,,0.00,WUHU216HW,2013-03-02 19:08:00,
2013-03-02 11:09:00,73.3,40.0,29.86,WSW,248,2.0,5.4,30,0.00,,,0.00,WUHU216HW,2013-03-02 19:09:00,
2013-03-02 11:10:00,73.4,40.9,29.86,WSW,248,2.0,5.4,31,0.00,,,0.00,WUHU216HW,2013-03-02 19:10:00,
2013-03-02 11:11:00,73.4,40.9,29.86,SW,225,1.3,5.4,31,0.00,,,0.00,WUHU216HW,2013-03-02 19:11:00,
2013-03-02 11:13:00,73.3,40.8,29.86,WNW,293,2.0,5.4,31,0.00,,,0.00,WUHU216HW,2013-03-02 19:13:00,
2013-03-02 11:14:00,73.1,39.9,29.86,WNW,293,1.1,5.4,30,0.00,,,0.00,WUHU216HW,2013-03-02 19:14:00,
2013-03-02 11:15:00,72.9,40.5,29.86,SW,225,3.8,5.4,31,0.00,,,0.00,WUHU216HW,2013-03-02 19:15:00,
2013-03-02 11:16:00,73.1,40.6,29.86,SW,225,4.0,5.4,31,0.00,,,0.00,WUHU216HW,2013-03-02 19:16:00,
2013-03-02 11:17:00,72.9,40.5,29.86,SW,225,2.9,4.7,31,0.00,,,0.00,WUHU216HW,2013-03-02 19:17:00,
2013-03-02 11:18:00,72.9,40.5,29.86,WNW,293,1.8,4.5,31,0.00,,,0.00,WUHU216HW,2013-03-02 19:18:00,
2013-03-02 11:19:00,73.1,39.9,29.86,West,270,1.1,4.5,30,0.00,,,0.00,WUHU216HW,2013-03-02 19:19:00,
2013-03-02 11:20:00,73.1,40.6,29.86,WNW,293,3.4,4.5,31,0.00,,,0.00,WUHU216HW,2013-03-02 19:20:00,
2013-03-02 11:21:00,73.1,38.9,29.86,West,270,1.1,4.5,29,0.00,,,0.00,WUHU216HW,2013-03-02 19:21:00,
2013-03-02 11:22:00,72.9,38.7,29.86,West,270,1.8,4.5,29,0.00,,,0.00,WUHU216HW,2013-03-02 19:22:00,
2013-03-02 11:23:00,72.9,39.7,29.86,SW,225,2.7,4.5,30,0.00,,,0.00,WUHU216HW,2013-03-02 19:23:00,
2013-03-02 11:24:00,72.9,38.7,29.86,SSW,203,3.4,4.5,29,0.00,,,0.00,WUHU216HW,2013-03-02 19:24:00,
2013-03-02 11:25:00,72.7,41.0,29.86,West,270,2.2,4.5,32,0.00,,,0.00,WUHU216HW,2013-03-02 19:25:00,
2013-03-02 11:26:00,72.5,41.0,29.86,SW,225,1.1,4.0,32,0.00,,,0.00,WUHU216HW,2013-03-02 19:26:00,
2013-03-02 11:27:00,72.5,41.0,29.86,WSW,248,2.7,4.0,32,0.00,,,0.00,WUHU216HW,2013-03-02 19:27:00,
2013-03-02 11:28:00,72.5,41.7,29.86,WSW,248,3.1,4.0,33,0.00,,,0.00,WUHU216HW,2013-03-02 19:28:00,
2013-03-02 11:29:00,72.4,41.5,29.86,WNW,293,1.1,4.0,33,0.00,,,0.00,WUHU216HW,2013-03-02 19:29:00,
2013-03-02 11:30:00,72.4,42.3,29.86,SW,225,4.0,4.0,34,0.00,,,0.00,WUHU216HW,2013-03-02 19:30:00,
2013-03-02 11:31:00,72.2,42.1,29.86,WNW,293,1.8,4.0,34,0.00,,,0.00,WUHU216HW,2013-03-02 19:31:00,
2013-03-02 11:32:00,71.8,41.8,29.86,NW,315,2.5,4.0,34,0.00,,,0.00,WUHU216HW,2013-03-02 19:32:00,
2013-03-02 11:33:00,71.6,41.7,29.86,West,270,2.5,4.0,34,0.00,,,0.00,WUHU216HW,2013-03-02 19:33:00,
2013-03-02 11:34:00,71.5,42.2,29.86,West,270,1.8,4.0,35,0.00,,,0.00,WUHU216HW,2013-03-02 19:34:00,
2013-03-02 11:35:00,71.3,42.0,29.86,WSW,248,2.2,4.0,35,0.00,,,0.00,WUHU216HW,2013-03-02 19:35:00,
2013-03-02 11:36:00,71.1,43.4,29.86,WSW,248,3.4,4.0,37,0.00,,,0.00,WUHU216HW,2013-03-02 19:36:00,
2013-03-02 11:37:00,71.1,43.4,29.86,West,270,3.1,4.0,37,0.00,,,0.00,WUHU216HW,2013-03-02 19:37:00,
2013-03-02 11:38:00,70.9,41.8,29.86,NE,45,3.1,4.0,35,0.00,,,0.00,WUHU216HW,2013-03-02 19:38:00,
2013-03-02 11:39:00,70.6,41.4,29.86,SSE,158,1.3,4.0,35,0.00,,,0.00,WUHU216HW,2013-03-02 19:39:00,
2013-03-02 11:40:00,70.6,40.7,29.86,WNW,293,3.4,4.0,34,0.00,,,0.00,WUHU216HW,2013-03-02 19:40:00,
2013-03-02 11:41:00,70.4,41.2,29.86,WNW,293,1.8,3.8,35,0.00,,,0.00,WUHU216HW,2013-03-02 19:41:00,
2013-03-02 11:42:00,70.2,41.1,29.86,West,270,2.5,3.8,35,0.00,,,0.00,WUHU216HW,2013-03-02 19:42:00,
2013-03-02 11:43:00,70.2,41.1,29.86,SW,225,2.9,3.8,35,0.00,,,0.00,WUHU216HW,2013-03-02 19:43:00,
2013-03-02 11:44:00,70.2,41.1,29.86,SW,225,2.7,3.8,35,0.00,,,0.00,WUHU216HW,2013-03-02 19:44:00,
2013-03-02 11:45:00,70.2,41.9,29.86,WSW,248,2.5,3.8,36,0.00,,,0.00,WUHU216HW,2013-03-02 19:45:00,
2013-03-02 11:46:00,70.2,42.6,29.85,SW,225,2.9,3.8,37,0.00,,,0.00,WUHU216HW,2013-03-02 19:46:00,
2013-03-02 11:47:00,70.2,42.6,29.86,WSW,248,3.4,3.8,37,0.00,,,0.00,WUHU216HW,2013-03-02 19:47:00,
2013-03-02 11:48:00,70.2,42.6,29.85,SSE,158,1.3,3.8,37,0.00,,,0.00,WUHU216HW,2013-03-02 19:48:00,
2013-03-02 11:49:00,70.2,43.3,29.85,West,270,2.5,3.8,38,0.00,,,0.00,WUHU216HW,2013-03-02 19:49:00,
2013-03-02 11:50:00,70.0,43.1,29.86,NW,315,2.5,3.8,38,0.00,,,0.00,WUHU216HW,2013-03-02 19:50:00,
2013-03-02 11:51:00,70.0,43.1,29.85,WSW,248,2.0,3.8,38,0.00,,,0.00,WUHU216HW,2013-03-02 19:51:00,
2013-03-02 11:52:00,69.8,43.8,29.86,WNW,293,1.8,3.8,39,0.00,,,0.00,WUHU216HW,2013-03-02 19:52:00,
2013-03-02 11:53:00,69.8,42.2,29.85,WNW,293,2.9,3.4,37,0.00,,,0.00,WUHU216HW,2013-03-02 19:53:00,
2013-03-02 11:54:00,69.5,42.7,29.85,WSW,248,2.2,3.4,38,0.00,,,0.00,WUHU216HW,2013-03-02 19:54:00,
2013-03-02 11:55:00,69.5,42.7,29.85,West,270,3.4,3.4,38,0.00,,,0.00,WUHU216HW,2013-03-02 19:55:00,
2013-03-02 11:56:00,69.5,42.7,29.85,SW,225,2.9,3.4,38,0.00,,,0.00,WUHU216HW,2013-03-02 19:56:00,
2013-03-02 11:57:00,69.1,42.3,29.85,West,270,2.7,3.4,38,0.00,,,0.00,WUHU216HW,2013-03-02 19:57:00,
2013-03-02 11:58:00,69.1,43.1,29.85,SSW,203,2.5,3.4,39,0.00,,,0.00,WUHU216HW,2013-03-02 19:58:00,
2013-03-02 11:59:00,68.9,43.7,29.85,SE,135,1.6,3.4,40,0.00,,,0.00,WUHU216HW,2013-03-02 19:59:00,
2013-03-02 12:00:00,68.9,43.7,29.85,WSW,248,2.9,3.4,40,0.00,,,0.00,WUHU216HW,2013-03-02 20:00:00,
2013-03-02 12:01:00,68.9,42.9,29.85,NW,315,2.7,3.4,39,0.00,,,0.00,WUHU216HW,2013-03-02 20:01:00,
2013-03-02 12:02:00,68.9,42.9,29.85,WSW,248,3.1,3.4,39,0.00,,,0.00,WUHU216HW,2013-03-02 20:02:00,
2013-03-02 12:03:00,68.8,42.8,29.85,WNW,293,3.6,3.6,39,0.00,,,0.00,WUHU216HW,2013-03-02 20:03:00,
2013-03-02 12:04:00,68.8,43.5,29.85,WSW,248,3.1,3.6,40,0.00,,,0.00,WUHU216HW,2013-03-02 20:04:00,
2013-03-02 12:05:00,68.6,43.3,29.85,WSW,248,4.9,4.9,40,0.00,,,0.00,WUHU216HW,2013-03-02 20:05:00,
2013-03-02 12:06:00,68.2,43.6,29.85,WNW,293,2.9,4.9,41,0.00,,,0.00,WUHU216HW,2013-03-02 20:06:00,
2013-03-02 12:07:00,68.0,43.5,29.85,West,270,2.9,4.9,41,0.00,,,0.00,WUHU216HW,2013-03-02 20:07:00,
2013-03-02 12:08:00,67.9,43.3,29.85,West,270,1.1,4.9,41,0.00,,,0.00,WUHU216HW,2013-03-02 20:08:00,
2013-03-02 12:09:00,67.9,44.5,29.85,West,270,2.5,4.9,43,0.00,,,0.00,WUHU216HW,2013-03-02 20:09:00,
2013-03-02 12:10:00,67.9,44.5,29.85,NW,315,2.2,4.9,43,0.00,,,0.00,WUHU216HW,2013-03-02 20:10:00,
2013-03-02 12:11:00,67.7,44.3,29.85,WSW,248,1.3,4.9,43,0.00,,,0.00,WUHU216HW,2013-03-02 20:11:00,
2013-03-02 12:12:00,67.7,44.9,29.85,NNE,23,2.5,4.9,44,0.00,,,0.00,WUHU216HW,2013-03-02 20:12:00,
2013-03-02 12:13:00,67.7,44.9,29.85,WSW,248,4.3,4.9,44,0.00,,,0.00,WUHU216HW,2013-03-02 20:13:00,
2013-03-02 12:14:00,67.5,45.4,29.85,West,270,2.2,4.9,45,0.00,,,0.00,WUHU216HW,2013-03-02 20:14:00,
2013-03-02 12:15:00,67.3,45.7,29.85,WSW,248,1.8,4.9,46,0.00,,,0.00,WUHU216HW,2013-03-02 20:15:00,
2013-03-02 12:16:00,67.3,45.7,29.85,WSW,248,2.5,4.3,46,0.00,,,0.00,WUHU216HW,2013-03-02 20:16:00,
2013-03-02 12:17:00,67.3,46.4,29.84,WSW,248,1.3,4.3,47,0.00,,,0.00,WUHU216HW,2013-03-02 20:17:00,
2013-03-02 12:18:00,67.3,47.0,29.84,SW,225,2.2,4.3,48,0.00,,,0.00,WUHU216HW,2013-03-02 20:18:00,
2013-03-02 12:19:00,67.3,47.5,29.84,SW,225,1.8,4.3,49,0.00,,,0.00,WUHU216HW,2013-03-02 20:19:00,
2013-03-02 12:20:00,67.1,47.3,29.84,WNW,293,1.8,4.3,49,0.00,,,0.00,WUHU216HW,2013-03-02 20:20:00,
2013-03-02 12:21:00,67.1,46.8,29.84,WSW,248,1.8,4.3,48,0.00,,,0.00,WUHU216HW,2013-03-02 20:21:00,
2013-03-02 12:22:00,67.1,47.3,29.84,SSW,203,1.1,4.3,49,0.00,,,0.00,WUHU216HW,2013-03-02 20:22:00,
2013-03-02 12:23:00,67.3,47.0,29.84,West,270,1.8,4.3,48,0.00,,,0.00,WUHU216HW,2013-03-02 20:23:00,
2013-03-02 12:24:00,67.3,47.0,29.84,WSW,248,2.0,3.4,48,0.00,,,0.00,WUHU216HW,2013-03-02 20:24:00,
2013-03-02 12:25:00,67.3,47.5,29.84,WNW,293,0.7,3.4,49,0.00,,,0.00,WUHU216HW,2013-03-02 20:25:00,
2013-03-02 12:26:00,67.5,47.1,29.84,SSW,203,0.7,3.4,48,0.00,,,0.00,WUHU216HW,2013-03-02 20:26:00,
2013-03-02 12:27:00,67.7,47.9,29.84,West,270,1.3,3.4,49,0.00,,,0.00,WUHU216HW,2013-03-02 20:27:00,
2013-03-02 12:28:00,68.0,47.6,29.84,West,270,2.2,3.4,48,0.00,,,0.00,WUHU216HW,2013-03-02 20:28:00,
2013-03-02 12:29:00,68.0,47.6,29.84,WSW,248,1.1,3.4,48,0.00,,,0.00,WUHU216HW,2013-03-02 20:29:00,
2013-03-02 12:30:00,68.2,47.8,29.84,NW,315,2.5,3.4,48,0.00,,,0.00,WUHU216HW,2013-03-02 20:30:00,
2013-03-02 12:31:00,68.2,47.8,29.84,West,270,1.8,3.4,48,0.00,,,0.00,WUHU216HW,2013-03-02 20:31:00,
2013-03-02 12:32:00,68.2,47.2,29.84,WNW,293,3.4,3.4,47,0.00,,,0.00,WUHU216HW,2013-03-02 20:32:00,
2013-03-02 12:33:00,68.2,47.2,29.84,WSW,248,3.1,4.3,47,0.00,,,0.00,WUHU216HW,2013-03-02 20:33:00,
2013-03-02 12:34:00,68.0,47.6,29.84,NW,315,1.3,4.3,48,0.00,,,0.00,WUHU216HW,2013-03-02 20:34:00,
2013-03-02 12:35:00,68.2,47.8,29.84,SW,225,1.1,4.3,48,0.00,,,0.00,WUHU216HW,2013-03-02 20:35:00,
2013-03-02 12:36:00,68.2,47.8,29.83,NE,45,1.8,4.3,48,0.00,,,0.00,WUHU216HW,2013-03-02 20:36:00,
2013-03-02 12:37:00,68.2,47.2,29.83,WNW,293,0.7,4.3,47,0.00,,,0.00,WUHU216HW,2013-03-02 20:37:00,
2013-03-02 12:38:00,68.4,47.4,29.83,NW,315,1.1,4.3,47,0.00,,,0.00,WUHU216HW,2013-03-02 20:38:00,
2013-03-02 12:39:00,68.6,46.9,29.83,SSW,203,1.8,4.3,46,0.00,,,0.00,WUHU216HW,2013-03-02 20:39:00,
2013-03-02 12:40:00,68.6,46.3,29.83,SSW,203,2.5,4.3,45,0.00,,,0.00,WUHU216HW,2013-03-02 20:40:00,
2013-03-02 12:41:00,68.4,45.5,29.83,WSW,248,2.9,4.3,44,0.00,,,0.00,WUHU216HW,2013-03-02 20:41:00,
2013-03-02 12:42:00,68.4,44.9,29.83,WSW,248,2.0,4.3,43,0.00,,,0.00,WUHU216HW,2013-03-02 20:42:00,
2013-03-02 12:43:00,68.2,45.4,29.83,WSW,248,2.5,2.9,44,0.00,,,0.00,WUHU216HW,2013-03-02 20:43:00,
2013-03-02 12:44:00,68.2,45.4,29.83,WNW,293,1.8,2.9,44,0.00,,,0.00,WUHU216HW,2013-03-02 20:44:00,
2013-03-02 12:45:00,68.2,45.4,29.83,North,0,2.9,2.9,44,0.00,,,0.00,WUHU216HW,2013-03-02 20:45:00,
2013-03-02 12:46:00,68.2,45.4,29.83,West,270,1.8,3.1,44,0.00,,,0.00,WUHU216HW,2013-03-02 20:46:00,
2013-03-02 12:47:00,68.2,45.4,29.82,NW,315,2.0,3.1,44,0.00,,,0.00,WUHU216HW,2013-03-02 20:47:00,
2013-03-02 12:48:00,68.2,45.4,29.83,NNW,338,2.5,3.4,44,0.00,,,0.00,WUHU216HW,2013-03-02 20:48:00,
2013-03-02 12:49:00,68.2,46.0,29.82,WNW,293,2.0,3.4,45,0.00,,,0.00,WUHU216HW,2013-03-02 20:49:00,
2013-03-02 12:50:00,68.0,45.8,29.83,West,270,0.7,3.4,45,0.00,,,0.00,WUHU216HW,2013-03-02 20:50:00,
2013-03-02 12:51:00,68.0,45.8,29.83,WNW,293,1.3,3.4,45,0.00,,,0.00,WUHU216HW,2013-03-02 20:51:00,
2013-03-02 12:52:00,68.0,45.8,29.82,SSE,158,0.2,3.4,45,0.00,,,0.00,WUHU216HW,2013-03-02 20:52:00,
2013-03-02 12:53:00,68.2,46.0,29.82,NW,315,1.1,3.4,45,0.00,,,0.00,WUHU216HW,2013-03-02 20:53:00,
2013-03-02 12:54:00,68.2,46.0,29.82,WSW,248,2.0,3.4,45,0.00,,,0.00,WUHU216HW,2013-03-02 20:54:00,
2013-03-02 12:55:00,68.2,46.0,29.82,WSW,248,0.4,3.4,45,0.00,,,0.00,WUHU216HW,2013-03-02 20:55:00,
2013-03-02 12:56:00,68.2,45.4,29.82,WSW,248,2.5,3.4,44,0.00,,,0.00,WUHU216HW,2013-03-02 20:56:00,
2013-03-02 12:57:00,68.4,45.5,29.82,NW,315,1.8,3.4,44,0.00,,,0.00,WUHU216HW,2013-03-02 20:57:00,
2013-03-02 12:58:00,68.4,45.5,29.82,WNW,293,0.9,3.1,44,0.00,,,0.00,WUHU216HW,2013-03-02 20:58:00,
2013-03-02 12:59:00,68.4,45.5,29.82,WSW,248,1.6,3.1,44,0.00,,,0.00,WUHU216HW,2013-03-02 20:59:00,
2013-03-02 13:00:00,68.6,45.7,29.82,WSW,248,2.0,3.1,44,0.00,,,0.00,WUHU216HW,2013-03-02 21:00:00,
2013-03-02 13:01:00,68.8,44.6,29.82,WNW,293,1.8,3.1,42,0.00,,,0.00,WUHU216HW,2013-03-02 21:01:00,
2013-03-02 13:02:00,68.8,44.6,29.82,WNW,293,2.9,3.1,42,0.00,,,0.00,WUHU216HW,2013-03-02 21:02:00,
2013-03-02 13:03:00,68.8,45.3,29.82,NNW,338,1.6,3.1,43,0.00,,,0.00,WUHU216HW,2013-03-02 21:03:00,
2013-03-02 13:04:00,68.8,44.1,29.82,WNW,293,1.3,3.1,41,0.00,,,0.00,WUHU216HW,2013-03-02 21:04:00,
2013-03-02 13:05:00,68.8,44.6,29.82,West,270,0.9,3.1,42,0.00,,,0.00,WUHU216HW,2013-03-02 21:05:00,
2013-03-02 13:06:00,68.9,45.5,29.82,SW,225,0.4,3.1,43,0.00,,,0.00,WUHU216HW,2013-03-02 21:06:00,
2013-03-02 13:07:00,68.9,45.5,29.82,West,270,1.3,2.9,43,0.00,,,0.00,WUHU216HW,2013-03-02 21:07:00,
2013-03-02 13:08:00,68.9,44.8,29.82,West,270,2.0,2.9,42,0.00,,,0.00,WUHU216HW,2013-03-02 21:08:00,
2013-03-02 13:09:00,68.9,44.8,29.82,WNW,293,0.9,2.9,42,0.00,,,0.00,WUHU216HW,2013-03-02 21:09:00,
2013-03-02 13:10:00,69.1,45.0,29.81,NW,315,0.4,2.9,42,0.00,,,0.00,WUHU216HW,2013-03-02 21:10:00,
2013-03-02 13:11:00,69.1,46.2,29.81,WSW,248,0.4,2.9,44,0.00,,,0.00,WUHU216HW,2013-03-02 21:11:00,
2013-03-02 13:12:00,69.5,46.5,29.81,WNW,293,0.4,2.5,44,0.00,,,0.00,WUHU216HW,2013-03-02 21:12:00,
2013-03-02 13:14:00,69.7,45.5,29.81,WSW,248,2.0,2.5,42,0.00,,,0.00,WUHU216HW,2013-03-02 21:14:00,
2013-03-02 13:15:00,70.0,45.8,29.81,SSW,203,2.7,3.4,42,0.00,,,0.00,WUHU216HW,2013-03-02 21:15:00,
2013-03-02 13:16:00,70.4,46.2,29.81,SW,225,2.7,3.4,42,0.00,,,0.00,WUHU216HW,2013-03-02 21:16:00,
2013-03-02 13:17:00,70.6,46.3,29.81,SW,225,3.6,3.6,42,0.00,,,0.00,WUHU216HW,2013-03-02 21:17:00,
2013-03-02 13:19:00,70.9,46.0,29.81,WSW,248,4.0,4.0,41,0.00,,,0.00,WUHU216HW,2013-03-02 21:19:00,
2013-03-02 13:20:00,70.9,45.5,29.81,West,270,1.1,4.0,40,0.00,,,0.00,WUHU216HW,2013-03-02 21:20:00,
2013-03-02 13:21:00,70.9,45.5,29.81,SW,225,2.2,4.0,40,0.00,,,0.00,WUHU216HW,2013-03-02 21:21:00,
2013-03-02 13:22:00,71.1,45.6,29.81,SW,225,3.4,4.7,40,0.00,,,0.00,WUHU216HW,2013-03-02 21:22:00,
2013-03-02 13:24:00,71.3,45.7,29.81,West,270,2.0,4.7,40,0.00,,,0.00,WUHU216HW,2013-03-02 21:24:00,
2013-03-02 13:25:00,71.3,45.0,29.81,South,180,1.3,4.7,39,0.00,,,0.00,WUHU216HW,2013-03-02 21:25:00,
2013-03-02 13:26:00,71.5,45.9,29.81,West,270,1.6,4.7,40,0.00,,,0.00,WUHU216HW,2013-03-02 21:26:00,
2013-03-02 13:27:00,71.6,45.4,29.80,SW,225,1.3,4.7,39,0.00,,,0.00,WUHU216HW,2013-03-02 21:27:00,
2013-03-02 13:29:00,71.6,45.4,29.80,WSW,248,1.8,4.7,39,0.00,,,0.00,WUHU216HW,2013-03-02 21:29:00,
2013-03-02 13:30:00,71.8,44.0,29.80,WSW,248,1.8,4.7,37,0.00,,,0.00,WUHU216HW,2013-03-02 21:30:00,
2013-03-02 13:31:00,72.0,44.2,29.80,WSW,248,3.1,4.7,37,0.00,,,0.00,WUHU216HW,2013-03-02 21:31:00,
2013-03-02 13:32:00,72.0,44.9,29.80,WSW,248,1.1,3.4,38,0.00,,,0.00,WUHU216HW,2013-03-02 21:32:00,
2013-03-02 13:34:00,72.2,45.1,29.80,WSW,248,2.0,3.6,38,0.00,,,0.00,WUHU216HW,2013-03-02 21:34:00,
2013-03-02 13:35:00,72.4,44.5,29.80,West,270,1.8,3.6,37,0.00,,,0.00,WUHU216HW,2013-03-02 21:35:00,
2013-03-02 13:36:00,72.5,44.6,29.80,North,0,1.1,3.6,37,0.00,,,0.00,WUHU216HW,2013-03-02 21:36:00,
2013-03-02 13:37:00,72.7,44.1,29.80,West,270,0.9,3.6,36,0.00,,,0.00,WUHU216HW,2013-03-02 21:37:00,
2013-03-02 13:39:00,72.7,43.3,29.80,SW,225,2.2,3.6,35,0.00,,,0.00,WUHU216HW,2013-03-02 21:39:00,
2013-03-02 13:40:00,72.9,43.5,29.80,SW,225,2.7,3.6,35,0.00,,,0.00,WUHU216HW,2013-03-02 21:40:00,
2013-03-02 13:41:00,72.9,43.5,29.80,SW,225,1.6,3.6,35,0.00,,,0.00,WUHU216HW,2013-03-02 21:41:00,
2013-03-02 13:42:00,72.9,43.5,29.80,West,270,1.6,3.6,35,0.00,,,0.00,WUHU216HW,2013-03-02 21:42:00,
2013-03-02 13:44:00,73.1,43.7,29.80,SW,225,3.4,3.4,35,0.00,,,0.00,WUHU216HW,2013-03-02 21:44:00,
2013-03-02 13:45:00,73.1,44.4,29.80,SW,225,4.0,4.3,36,0.00,,,0.00,WUHU216HW,2013-03-02 21:45:00,
2013-03-02 13:46:00,73.1,44.4,29.80,WSW,248,1.3,4.3,36,0.00,,,0.00,WUHU216HW,2013-03-02 21:46:00,
2013-03-02 13:47:00,73.1,45.1,29.80,WSW,248,3.6,4.3,37,0.00,,,0.00,WUHU216HW,2013-03-02 21:47:00,
2013-03-02 13:49:00,73.1,45.1,29.80,SSW,203,4.5,4.7,37,0.00,,,0.00,WUHU216HW,2013-03-02 21:49:00,
2013-03-02 13:50:00,73.3,46.8,29.80,WSW,248,1.1,4.7,39,0.00,,,0.00,WUHU216HW,2013-03-02 21:50:00,
2013-03-02 13:51:00,73.3,46.8,29.80,SSW,203,2.7,4.7,39,0.00,,,0.00,WUHU216HW,2013-03-02 21:51:00,
2013-03-02 13:52:00,73.4,47.0,29.80,WSW,248,3.8,4.7,39,0.00,,,0.00,WUHU216HW,2013-03-02 21:52:00,
2013-03-02 13:54:00,73.4,47.0,29.80,SW,225,4.7,4.7,39,0.00,,,0.00,WUHU216HW,2013-03-02 21:54:00,
2013-03-02 13:55:00,73.6,47.1,29.80,WSW,248,2.2,4.7,39,0.00,,,0.00,WUHU216HW,2013-03-02 21:55:00,
2013-03-02 13:56:00,73.8,45.7,29.79,WNW,293,2.7,4.7,37,0.00,,,0.00,WUHU216HW,2013-03-02 21:56:00,
2013-03-02 13:57:00,73.8,44.3,29.79,WNW,293,1.6,4.7,35,0.00,,,0.00,WUHU216HW,2013-03-02 21:57:00,
2013-03-02 13:59:00,73.8,45.0,29.79,North,0,1.1,4.7,36,0.00,,,0.00,WUHU216HW,2013-03-02 21:59:00,
2013-03-02 14:00:00,73.8,45.7,29.79,WSW,248,1.6,4.7,37,0.00,,,0.00,WUHU216HW,2013-03-02 22:00:00,
2013-03-02 14:01:00,73.8,45.0,29.79,WSW,248,2.2,4.7,36,0.00,,,0.00,WUHU216HW,2013-03-02 22:01:00,
2013-03-02 14:02:00,73.6,44.1,29.79,WNW,293,2.5,4.7,35,0.00,,,0.00,WUHU216HW,2013-03-02 22:02:00,
2013-03-02 14:04:00,73.6,44.8,29.79,SW,225,2.5,4.7,36,0.00,,,0.00,WUHU216HW,2013-03-02 22:04:00,
2013-03-02 14:05:00,73.6,44.1,29.79,West,270,1.1,3.6,35,0.00,,,0.00,WUHU216HW,2013-03-02 22:05:00,
2013-03-02 14:06:00,73.6,45.6,29.79,SW,225,1.8,3.6,37,0.00,,,0.00,WUHU216HW,2013-03-02 22:06:00,
2013-03-02 14:07:00,73.8,46.5,29.79,WSW,248,1.6,3.6,38,0.00,,,0.00,WUHU216HW,2013-03-02 22:07:00,
2013-03-02 14:09:00,73.6,45.6,29.79,SW,225,1.8,3.6,37,0.00,,,0.00,WUHU216HW,2013-03-02 22:09:00,
2013-03-02 14:10:00,73.8,45.7,29.79,SW,225,2.9,3.8,37,0.00,,,0.00,WUHU216HW,2013-03-02 22:10:00,
2013-03-02 14:11:00,73.6,44.8,29.78,WSW,248,1.8,3.8,36,0.00,,,0.00,WUHU216HW,2013-03-02 22:11:00,
2013-03-02 14:12:00,73.6,44.1,29.79,WSW,248,2.0,3.8,35,0.00,,,0.00,WUHU216HW,2013-03-02 22:12:00,
2013-03-02 14:14:00,73.4,45.5,29.79,WSW,248,2.7,3.8,37,0.00,,,0.00,WUHU216HW,2013-03-02 22:14:00,
2013-03-02 14:15:00,73.3,45.3,29.79,WSW,248,1.1,3.8,37,0.00,,,0.00,WUHU216HW,2013-03-02 22:15:00,
2013-03-02 14:16:00,73.1,45.9,29.79,WSW,248,1.8,3.8,38,0.00,,,0.00,WUHU216HW,2013-03-02 22:16:00,
2013-03-02 14:17:00,73.1,45.9,29.79,WSW,248,3.4,3.8,38,0.00,,,0.00,WUHU216HW,2013-03-02 22:17:00,
2013-03-02 14:19:00,72.9,45.7,29.79,SW,225,2.7,3.8,38,0.00,,,0.00,WUHU216HW,2013-03-02 22:19:00,
2013-03-02 14:20:00,72.7,46.3,29.79,West,270,2.0,3.4,39,0.00,,,0.00,WUHU216HW,2013-03-02 22:20:00,
2013-03-02 14:21:00,72.4,46.7,29.79,WSW,248,3.1,3.4,40,0.00,,,0.00,WUHU216HW,2013-03-02 22:21:00,
2013-03-02 14:22:00,72.2,47.2,29.79,SW,225,2.5,3.4,41,0.00,,,0.00,WUHU216HW,2013-03-02 22:22:00,
2013-03-02 14:24:00,72.0,46.5,29.79,WSW,248,2.5,3.4,40,0.00,,,0.00,WUHU216HW,2013-03-02 22:24:00,
2013-03-02 14:25:00,71.8,46.3,29.79,SW,225,2.0,3.4,40,0.00,,,0.00,WUHU216HW,2013-03-02 22:25:00,
2013-03-02 14:26:00,71.8,46.8,29.79,SW,225,2.5,3.4,41,0.00,,,0.00,WUHU216HW,2013-03-02 22:26:00,
2013-03-02 14:27:00,71.6,47.9,29.79,WSW,248,1.3,3.4,43,0.00,,,0.00,WUHU216HW,2013-03-02 22:27:00,
2013-03-02 14:29:00,71.3,47.0,29.79,SW,225,3.4,3.4,42,0.00,,,0.00,WUHU216HW,2013-03-02 22:29:00,
2013-03-02 14:30:00,71.3,47.0,29.78,WSW,248,2.2,4.3,42,0.00,,,0.00,WUHU216HW,2013-03-02 22:30:00,
2013-03-02 14:31:00,70.9,46.6,29.79,WSW,248,3.1,4.3,42,0.00,,,0.00,WUHU216HW,2013-03-02 22:31:00,
2013-03-02 14:32:00,70.7,46.4,29.79,West,270,2.5,4.3,42,0.00,,,0.00,WUHU216HW,2013-03-02 22:32:00,
2013-03-02 14:34:00,70.6,46.9,29.79,WSW,248,1.8,4.3,43,0.00,,,0.00,WUHU216HW,2013-03-02 22:34:00,
2013-03-02 14:35:00,70.6,47.5,29.79,West,270,1.3,4.3,44,0.00,,,0.00,WUHU216HW,2013-03-02 22:35:00,
2013-03-02 14:36:00,70.4,47.4,29.79,SW,225,2.5,4.3,44,0.00,,,0.00,WUHU216HW,2013-03-02 22:36:00,
2013-03-02 14:37:00,70.2,47.2,29.79,West,270,1.3,4.3,44,0.00,,,0.00,WUHU216HW,2013-03-02 22:37:00,
2013-03-02 14:39:00,70.2,47.8,29.79,WSW,248,1.6,4.3,45,0.00,,,0.00,WUHU216HW,2013-03-02 22:39:00,
2013-03-02 14:40:00,69.8,47.4,29.79,WSW,248,1.8,3.1,45,0.00,,,0.00,WUHU216HW,2013-03-02 22:40:00,
2013-03-02 14:41:00,69.8,47.4,29.79,West,270,1.6,3.1,45,0.00,,,0.00,WUHU216HW,2013-03-02 22:41:00,
2013-03-02 14:43:00,69.7,47.3,29.79,SSE,158,1.3,3.1,45,0.00,,,0.00,WUHU216HW,2013-03-02 22:43:00,
2013-03-02 14:44:00,69.5,47.1,29.79,NW,315,0.4,3.1,45,0.00,,,0.00,WUHU216HW,2013-03-02 22:44:00,
2013-03-02 14:45:00,69.3,47.0,29.79,NNW,338,0.4,3.1,45,0.00,,,0.00,WUHU216HW,2013-03-02 22:45:00,
2013-03-02 14:46:00,69.1,47.3,29.79,WNW,293,0.7,3.1,46,0.00,,,0.00,WUHU216HW,2013-03-02 22:46:00,
2013-03-02 14:47:00,69.1,48.0,29.79,West,270,0.7,2.5,47,0.00,,,0.00,WUHU216HW,2013-03-02 22:47:00,
2013-03-02 14:49:00,68.9,47.3,29.79,WNW,293,0.7,2.5,46,0.00,,,0.00,WUHU216HW,2013-03-02 22:49:00,
2013-03-02 14:50:00,69.1,48.0,29.79,West,270,1.6,2.5,47,0.00,,,0.00,WUHU216HW,2013-03-02 22:50:00,
2013-03-02 14:51:00,69.3,48.2,29.79,West,270,1.8,2.5,47,0.00,,,0.00,WUHU216HW,2013-03-02 22:51:00,
2013-03-02 14:52:00,69.3,48.2,29.79,NW,315,3.1,3.1,47,0.00,,,0.00,WUHU216HW,2013-03-02 22:52:00,
2013-03-02 14:54:00,69.3,48.2,29.79,WSW,248,2.7,3.1,47,0.00,,,0.00,WUHU216HW,2013-03-02 22:54:00,
2013-03-02 14:55:00,69.5,48.3,29.79,NNW,338,2.9,3.1,47,0.00,,,0.00,WUHU216HW,2013-03-02 22:55:00,
2013-03-02 14:56:00,69.7,48.4,29.79,WNW,293,1.1,3.4,47,0.00,,,0.00,WUHU216HW,2013-03-02 22:56:00,
2013-03-02 14:57:00,69.8,48.6,29.79,SW,225,1.8,3.4,47,0.00,,,0.00,WUHU216HW,2013-03-02 22:57:00,
2013-03-02 14:59:00,70.2,48.3,29.78,WSW,248,2.2,3.4,46,0.00,,,0.00,WUHU216HW,2013-03-02 22:59:00,
2013-03-02 15:00:00,70.2,48.3,29.78,WSW,248,0.9,3.4,46,0.00,,,0.00,WUHU216HW,2013-03-02 23:00:00,
2013-03-02 15:01:00,70.6,48.7,29.78,WSW,248,3.6,3.6,46,0.00,,,0.00,WUHU216HW,2013-03-02 23:01:00,
2013-03-02 15:03:00,70.6,48.7,29.78,West,270,2.0,4.7,46,0.00,,,0.00,WUHU216HW,2013-03-02 23:03:00,
2013-03-02 15:04:00,70.7,48.2,29.78,WSW,248,2.9,4.7,45,0.00,,,0.00,WUHU216HW,2013-03-02 23:04:00,
2013-03-02 15:05:00,70.9,48.4,29.78,WNW,293,1.8,4.7,45,0.00,,,0.00,WUHU216HW,2013-03-02 23:05:00,
2013-03-02 15:06:00,70.7,48.2,29.78,WSW,248,1.3,4.7,45,0.00,,,0.00,WUHU216HW,2013-03-02 23:06:00,
2013-03-02 15:08:00,70.9,47.8,29.78,SW,225,2.7,4.7,44,0.00,,,0.00,WUHU216HW,2013-03-02 23:08:00,
2013-03-02 15:09:00,70.9,47.8,29.78,WSW,248,2.7,4.7,44,0.00,,,0.00,WUHU216HW,2013-03-02 23:09:00,
2013-03-02 15:10:00,71.1,47.3,29.77,WSW,248,2.2,4.7,43,0.00,,,0.00,WUHU216HW,2013-03-02 23:10:00,
2013-03-02 15:11:00,71.1,47.3,29.77,WSW,248,1.8,4.7,43,0.00,,,0.00,WUHU216HW,2013-03-02 23:11:00,
2013-03-02 15:13:00,71.1,46.8,29.78,NW,315,1.6,3.4,42,0.00,,,0.00,WUHU216HW,2013-03-02 23:13:00,
2013-03-02 15:14:00,71.1,46.8,29.78,West,270,1.8,3.4,42,0.00,,,0.00,WUHU216HW,2013-03-02 23:14:00,
2013-03-02 15:15:00,71.1,46.8,29.78,NW,315,1.1,3.4,42,0.00,,,0.00,WUHU216HW,2013-03-02 23:15:00,
2013-03-02 15:16:00,71.1,46.8,29.78,WSW,248,2.5,3.4,42,0.00,,,0.00,WUHU216HW,2013-03-02 23:16:00,
2013-03-02 15:18:00,71.1,46.8,29.77,SSW,203,1.6,3.4,42,0.00,,,0.00,WUHU216HW,2013-03-02 23:18:00,
2013-03-02 15:19:00,71.1,46.8,29.77,SW,225,0.9,3.4,42,0.00,,,0.00,WUHU216HW,2013-03-02 23:19:00,
2013-03-02 15:20:00,71.3,47.5,29.77,WSW,248,1.3,4.0,43,0.00,,,0.00,WUHU216HW,2013-03-02 23:20:00,
2013-03-02 15:21:00,71.3,47.5,29.77,WSW,248,1.1,4.0,43,0.00,,,0.00,WUHU216HW,2013-03-02 23:21:00,
2013-03-02 15:23:00,71.5,47.1,29.77,West,270,2.0,4.0,42,0.00,,,0.00,WUHU216HW,2013-03-02 23:23:00,
2013-03-02 15:24:00,71.6,46.7,29.77,West,270,1.3,4.0,41,0.00,,,0.00,WUHU216HW,2013-03-02 23:24:00,
2013-03-02 15:25:00,71.6,46.7,29.77,WNW,293,1.1,4.0,41,0.00,,,0.00,WUHU216HW,2013-03-02 23:25:00,
2013-03-02 15:26:00,71.6,46.7,29.77,West,270,1.8,4.0,41,0.00,,,0.00,WUHU216HW,2013-03-02 23:26:00,
2013-03-02 15:28:00,71.6,46.1,29.77,West,270,1.8,4.0,40,0.00,,,0.00,WUHU216HW,2013-03-02 23:28:00,
2013-03-02 15:29:00,71.6,46.1,29.77,ENE,68,0.7,4.0,40,0.00,,,0.00,WUHU216HW,2013-03-02 23:29:00,
2013-03-02 15:30:00,71.8,46.3,29.76,West,270,2.5,3.4,40,0.00,,,0.00,WUHU216HW,2013-03-02 23:30:00,
2013-03-02 15:31:00,72.0,45.6,29.77,West,270,1.8,3.4,39,0.00,,,0.00,WUHU216HW,2013-03-02 23:31:00,
2013-03-02 15:33:00,72.0,45.6,29.77,SW,225,1.6,3.4,39,0.00,,,0.00,WUHU216HW,2013-03-02 23:33:00,
2013-03-02 15:34:00,72.0,44.9,29.77,WNW,293,2.5,3.4,38,0.00,,,0.00,WUHU216HW,2013-03-02 23:34:00,
2013-03-02 15:35:00,72.0,44.9,29.77,WSW,248,0.4,3.4,38,0.00,,,0.00,WUHU216HW,2013-03-02 23:35:00,
2013-03-02 15:36:00,72.0,44.9,29.77,West,270,0.7,3.4,38,0.00,,,0.00,WUHU216HW,2013-03-02 23:36:00,
2013-03-02 15:38:00,72.0,44.9,29.77,WSW,248,2.5,3.4,38,0.00,,,0.00,WUHU216HW,2013-03-02 23:38:00,
2013-03-02 15:39:00,72.2,45.1,29.77,WSW,248,1.6,3.4,38,0.00,,,0.00,WUHU216HW,2013-03-02 23:39:00,
2013-03-02 15:40:00,72.2,45.8,29.77,West,270,1.8,2.7,39,0.00,,,0.00,WUHU216HW,2013-03-02 23:40:00,
2013-03-02 15:41:00,72.0,45.6,29.77,NNW,338,1.8,2.7,39,0.00,,,0.00,WUHU216HW,2013-03-02 23:41:00,
2013-03-02 15:43:00,72.0,45.6,29.77,SW,225,2.9,2.9,39,0.00,,,0.00,WUHU216HW,2013-03-02 23:43:00,
2013-03-02 15:44:00,72.0,45.6,29.77,SW,225,2.5,4.7,39,0.00,,,0.00,WUHU216HW,2013-03-02 23:44:00,
2013-03-02 15:45:00,71.8,45.6,29.77,SW,225,3.4,4.7,39,0.00,,,0.00,WUHU216HW,2013-03-02 23:45:00,
2013-03-02 15:46:00,71.6,46.1,29.77,SW,225,2.5,4.7,40,0.00,,,0.00,WUHU216HW,2013-03-02 23:46:00,
2013-03-02 15:48:00,71.3,45.7,29.77,West,270,2.0,4.7,40,0.00,,,0.00,WUHU216HW,2013-03-02 23:48:00,
2013-03-02 15:49:00,71.1,46.2,29.77,NW,315,2.2,4.7,41,0.00,,,0.00,WUHU216HW,2013-03-02 23:49:00,
2013-03-02 15:50:00,70.9,46.0,29.77,WSW,248,2.9,4.7,41,0.00,,,0.00,WUHU216HW,2013-03-02 23:50:00,
2013-03-02 15:51:00,70.4,46.2,29.77,WSW,248,1.6,4.7,42,0.00,,,0.00,WUHU216HW,2013-03-02 23:51:00,
2013-03-02 15:53:00,70.2,46.0,29.77,NW,315,3.1,4.7,42,0.00,,,0.00,WUHU216HW,2013-03-02 23:53:00,
2013-03-02 15:54:00,69.8,46.3,29.77,WSW,248,2.7,4.0,43,0.00,,,0.00,WUHU216HW,2013-03-02 23:54:00,
2013-03-02 15:55:00,69.5,46.5,29.77,West,270,1.3,4.0,44,0.00,,,0.00,WUHU216HW,2013-03-02 23:55:00,
2013-03-02 15:56:00,69.1,46.8,29.77,WNW,293,1.6,3.6,45,0.00,,,0.00,WUHU216HW,2013-03-02 23:56:00,
2013-03-02 15:58:00,68.9,47.3,29.77,West,270,1.8,3.6,46,0.00,,,0.00,WUHU216HW,2013-03-02 23:58:00,
2013-03-02 15:59:00,68.8,47.6,29.77,West,270,2.0,3.6,47,0.00,,,0.00,WUHU216HW,2013-03-02 23:59:00,
2013-03-02 16:00:00,68.6,46.9,29.77,West,270,1.8,3.4,46,0.00,,,0.00,WUHU216HW,2013-03-03 00:00:00,
2013-03-02 16:01:00,68.4,47.4,29.76,West,270,2.5,3.1,47,0.00,,,0.00,WUHU216HW,2013-03-03 00:01:00,
2013-03-02 16:03:00,68.4,46.2,29.76,NW,315,2.2,3.4,45,0.00,,,0.00,WUHU216HW,2013-03-03 00:03:00,
2013-03-02 16:04:00,68.2,46.0,29.76,West,270,1.1,3.4,45,0.00,,,0.00,WUHU216HW,2013-03-03 00:04:00,
2013-03-02 16:05:00,68.2,46.0,29.76,West,270,0.7,3.4,45,0.00,,,0.00,WUHU216HW,2013-03-03 00:05:00,
2013-03-02 16:06:00,68.2,46.5,29.76,WSW,248,0.9,3.4,46,0.00,,,0.00,WUHU216HW,2013-03-03 00:06:00,
2013-03-02 16:08:00,68.2,46.5,29.76,West,270,1.6,3.4,46,0.00,,,0.00,WUHU216HW,2013-03-03 00:08:00,
2013-03-02 16:09:00,68.4,46.7,29.76,WNW,293,1.1,3.4,46,0.00,,,0.00,WUHU216HW,2013-03-03 00:09:00,
2013-03-02 16:10:00,68.4,46.7,29.76,NW,315,1.8,3.4,46,0.00,,,0.00,WUHU216HW,2013-03-03 00:10:00,
2013-03-02 16:11:00,68.4,46.7,29.76,WSW,248,2.0,3.4,46,0.00,,,0.00,WUHU216HW,2013-03-03 00:11:00,
2013-03-02 16:13:00,68.4,46.7,29.76,WSW,248,1.8,2.5,46,0.00,,,0.00,WUHU216HW,2013-03-03 00:13:00,
2013-03-02 16:14:00,68.4,46.7,29.76,WSW,248,2.0,3.1,46,0.00,,,0.00,WUHU216HW,2013-03-03 00:14:00,
2013-03-02 16:15:00,68.4,46.2,29.76,WNW,293,2.5,3.4,45,0.00,,,0.00,WUHU216HW,2013-03-03 00:15:00,
2013-03-02 16:16:00,68.4,45.5,29.76,WSW,248,1.8,3.4,44,0.00,,,0.00,WUHU216HW,2013-03-03 00:16:00,
2013-03-02 16:18:00,68.4,46.2,29.76,NW,315,1.8,3.4,45,0.00,,,0.00,WUHU216HW,2013-03-03 00:18:00,
2013-03-02 16:19:00,68.4,46.2,29.76,West,270,1.1,3.4,45,0.00,,,0.00,WUHU216HW,2013-03-03 00:19:00,
2013-03-02 16:20:00,68.4,44.4,29.76,SW,225,2.0,3.4,42,0.00,,,0.00,WUHU216HW,2013-03-03 00:20:00,
2013-03-02 16:21:00,68.4,45.5,29.76,West,270,1.1,3.4,44,0.00,,,0.00,WUHU216HW,2013-03-03 00:21:00,
2013-03-02 16:23:00,68.4,45.5,29.76,SSW,203,0.9,3.4,44,0.00,,,0.00,WUHU216HW,2013-03-03 00:23:00,
2013-03-02 16:24:00,68.2,44.2,29.76,West,270,1.8,3.4,42,0.00,,,0.00,WUHU216HW,2013-03-03 00:24:00,
2013-03-02 16:25:00,68.2,44.8,29.76,WSW,248,0.4,2.9,43,0.00,,,0.00,WUHU216HW,2013-03-03 00:25:00,
2013-03-02 16:26:00,68.2,44.2,29.76,WNW,293,3.1,3.6,42,0.00,,,0.00,WUHU216HW,2013-03-03 00:26:00,
2013-03-02 16:28:00,68.0,44.0,29.76,WSW,248,2.2,3.6,42,0.00,,,0.00,WUHU216HW,2013-03-03 00:28:00,
2013-03-02 16:29:00,68.0,43.5,29.77,NW,315,1.8,3.6,41,0.00,,,0.00,WUHU216HW,2013-03-03 00:29:00,
2013-03-02 16:30:00,68.0,43.5,29.77,WSW,248,1.6,3.6,41,0.00,,,0.00,WUHU216HW,2013-03-03 00:30:00,
2013-03-02 16:31:00,68.0,44.7,29.76,WSW,248,1.6,3.6,43,0.00,,,0.00,WUHU216HW,2013-03-03 00:31:00,
2013-03-02 16:33:00,67.9,44.5,29.76,WNW,293,1.1,3.6,43,0.00,,,0.00,WUHU216HW,2013-03-03 00:33:00,
2013-03-02 16:34:00,67.9,45.1,29.76,WNW,293,1.1,3.6,44,0.00,,,0.00,WUHU216HW,2013-03-03 00:34:00,
2013-03-02 16:35:00,67.7,45.5,29.76,WSW,248,1.6,4.0,45,0.00,,,0.00,WUHU216HW,2013-03-03 00:35:00,
2013-03-02 16:36:00,67.3,45.2,29.76,SSE,158,1.1,4.0,45,0.00,,,0.00,WUHU216HW,2013-03-03 00:36:00,
2013-03-02 16:38:00,67.3,45.2,29.76,WNW,293,0.9,4.0,45,0.00,,,0.00,WUHU216HW,2013-03-03 00:38:00,
2013-03-02 16:39:00,67.1,45.6,29.76,West,270,0.4,4.0,46,0.00,,,0.00,WUHU216HW,2013-03-03 00:39:00,
2013-03-02 16:40:00,67.1,45.6,29.76,WNW,293,3.6,4.0,46,0.00,,,0.00,WUHU216HW,2013-03-03 00:40:00,
2013-03-02 16:41:00,67.3,45.7,29.76,West,270,1.8,4.0,46,0.00,,,0.00,WUHU216HW,2013-03-03 00:41:00,
2013-03-02 16:43:00,67.3,45.7,29.76,WSW,248,1.1,4.0,46,0.00,,,0.00,WUHU216HW,2013-03-03 00:43:00,
2013-03-02 16:44:00,67.3,45.2,29.76,WSW,248,1.1,4.0,45,0.00,,,0.00,WUHU216HW,2013-03-03 00:44:00,
2013-03-02 16:45:00,67.3,45.2,29.76,WSW,248,0.4,3.6,45,0.00,,,0.00,WUHU216HW,2013-03-03 00:45:00,
2013-03-02 16:46:00,67.3,45.2,29.76,SW,225,2.0,3.6,45,0.00,,,0.00,WUHU216HW,2013-03-03 00:46:00,
2013-03-02 16:48:00,67.5,45.4,29.76,SW,225,0.9,3.6,45,0.00,,,0.00,WUHU216HW,2013-03-03 00:48:00,
2013-03-02 16:49:00,67.7,45.5,29.76,SW,225,0.4,3.6,45,0.00,,,0.00,WUHU216HW,2013-03-03 00:49:00,
2013-03-02 16:50:00,67.7,44.9,29.76,WSW,248,1.6,3.6,44,0.00,,,0.00,WUHU216HW,2013-03-03 00:50:00,
2013-03-02 16:51:00,67.9,45.1,29.75,SW,225,2.5,2.9,44,0.00,,,0.00,WUHU216HW,2013-03-03 00:51:00,
2013-03-02 16:53:00,67.7,44.3,29.76,West,270,2.7,2.9,43,0.00,,,0.00,WUHU216HW,2013-03-03 00:53:00,
2013-03-02 16:54:00,67.9,44.5,29.75,West,270,1.8,2.9,43,0.00,,,0.00,WUHU216HW,2013-03-03 00:54:00,
2013-03-02 16:55:00,67.7,43.1,29.76,WNW,293,1.1,2.9,41,0.00,,,0.00,WUHU216HW,2013-03-03 00:55:00,
2013-03-02 16:56:00,67.7,43.1,29.75,SW,225,4.9,4.9,41,0.00,,,0.00,WUHU216HW,2013-03-03 00:56:00,
2013-03-02 16:58:00,67.7,42.5,29.76,West,270,1.8,4.9,40,0.00,,,0.00,WUHU216HW,2013-03-03 00:58:00,
2013-03-02 16:59:00,67.5,42.4,29.76,WSW,248,2.5,4.9,40,0.00,,,0.00,WUHU216HW,2013-03-03 00:59:00,
2013-03-02 17:00:00,67.5,42.9,29.76,West,270,2.5,4.9,41,0.00,,,0.00,WUHU216HW,2013-03-03 01:00:00,
2013-03-02 17:01:00,67.3,44.6,29.76,WSW,248,3.6,4.9,44,0.00,,,0.00,WUHU216HW,2013-03-03 01:01:00,
2013-03-02 17:03:00,67.1,47.3,29.76,WSW,248,3.8,4.9,49,0.00,,,0.00,WUHU216HW,2013-03-03 01:03:00,
2013-03-02 17:04:00,66.8,47.6,29.75,WSW,248,1.1,4.9,50,0.00,,,0.00,WUHU216HW,2013-03-03 01:04:00,
2013-03-02 17:05:00,66.6,49.0,29.76,WNW,293,1.3,4.9,53,0.00,,,0.00,WUHU216HW,2013-03-03 01:05:00,
2013-03-02 17:06:00,66.2,48.6,29.76,WSW,248,2.2,4.9,53,0.00,,,0.00,WUHU216HW,2013-03-03 01:06:00,
2013-03-02 17:08:00,66.1,49.9,29.76,WSW,248,4.5,4.5,56,0.00,,,0.00,WUHU216HW,2013-03-03 01:08:00,
2013-03-02 17:09:00,65.9,51.2,29.76,West,270,1.8,4.5,59,0.00,,,0.00,WUHU216HW,2013-03-03 01:09:00,
2013-03-02 17:10:00,65.7,51.9,29.76,SW,225,1.8,4.5,61,0.00,,,0.00,WUHU216HW,2013-03-03 01:10:00,
2013-03-02 17:11:00,65.5,53.0,29.76,WSW,248,2.0,4.5,64,0.00,,,0.00,WUHU216HW,2013-03-03 01:11:00,
2013-03-02 17:13:00,65.3,52.8,29.76,West,270,1.8,4.5,64,0.00,,,0.00,WUHU216HW,2013-03-03 01:13:00,
2013-03-02 17:14:00,65.2,52.7,29.76,SW,225,1.8,4.5,64,0.00,,,0.00,WUHU216HW,2013-03-03 01:14:00,
2013-03-02 17:15:00,64.8,53.6,29.76,WNW,293,1.8,4.5,67,0.00,,,0.00,WUHU216HW,2013-03-03 01:15:00,
2013-03-02 17:16:00,64.4,53.3,29.76,WSW,248,1.8,4.5,67,0.00,,,0.00,WUHU216HW,2013-03-03 01:16:00,
2013-03-02 17:18:00,64.4,53.6,29.76,SW,225,1.6,4.5,68,0.00,,,0.00,WUHU216HW,2013-03-03 01:18:00,
2013-03-02 17:19:00,64.1,52.9,29.76,WSW,248,1.3,3.4,67,0.00,,,0.00,WUHU216HW,2013-03-03 01:19:00,
2013-03-02 17:20:00,64.1,52.5,29.76,West,270,0.4,3.4,66,0.00,,,0.00,WUHU216HW,2013-03-03 01:20:00,
2013-03-02 17:21:00,64.1,52.9,29.76,WSW,248,1.3,3.1,67,0.00,,,0.00,WUHU216HW,2013-03-03 01:21:00,
2013-03-02 17:23:00,64.1,53.3,29.76,WSW,248,1.3,3.1,68,0.00,,,0.00,WUHU216HW,2013-03-03 01:23:00,
2013-03-02 17:24:00,63.9,53.6,29.76,West,270,0.7,2.7,69,0.00,,,0.00,WUHU216HW,2013-03-03 01:24:00,
2013-03-02 17:25:00,63.9,53.6,29.76,South,180,1.1,2.7,69,0.00,,,0.00,WUHU216HW,2013-03-03 01:25:00,
2013-03-02 17:26:00,63.7,53.0,29.76,WSW,248,2.2,2.7,68,0.00,,,0.00,WUHU216HW,2013-03-03 01:26:00,
2013-03-02 17:28:00,63.5,53.2,29.76,West,270,0.4,2.7,69,0.00,,,0.00,WUHU216HW,2013-03-03 01:28:00,
2013-03-02 17:29:00,63.4,53.0,29.76,WNW,293,0.9,2.2,69,0.00,,,0.00,WUHU216HW,2013-03-03 01:29:00,
2013-03-02 17:30:00,63.2,52.8,29.76,West,270,0.7,2.2,69,0.00,,,0.00,WUHU216HW,2013-03-03 01:30:00,
2013-03-02 17:31:00,63.0,52.7,29.76,SW,225,1.8,2.2,69,0.00,,,0.00,WUHU216HW,2013-03-03 01:31:00,
2013-03-02 17:33:00,63.0,52.7,29.76,WSW,248,0.9,2.7,69,0.00,,,0.00,WUHU216HW,2013-03-03 01:33:00,
2013-03-02 17:34:00,62.8,52.9,29.76,West,270,1.1,2.7,70,0.00,,,0.00,WUHU216HW,2013-03-03 01:34:00,
2013-03-02 17:35:00,62.6,52.3,29.76,South,180,1.8,2.7,69,0.00,,,0.00,WUHU216HW,2013-03-03 01:35:00,
2013-03-02 17:36:00,62.6,52.7,29.76,West,270,0.4,2.7,70,0.00,,,0.00,WUHU216HW,2013-03-03 01:36:00,
2013-03-02 17:38:00,62.5,52.6,29.76,West,270,1.3,2.7,70,0.00,,,0.00,WUHU216HW,2013-03-03 01:38:00,
2013-03-02 17:39:00,62.5,52.6,29.76,WSW,248,1.8,2.7,70,0.00,,,0.00,WUHU216HW,2013-03-03 01:39:00,
2013-03-02 17:40:00,62.3,52.4,29.76,West,270,0.0,2.7,70,0.00,,,0.00,WUHU216HW,2013-03-03 01:40:00,
2013-03-02 17:41:00,62.3,52.7,29.76,SW,225,2.2,2.7,71,0.00,,,0.00,WUHU216HW,2013-03-03 01:41:00,
2013-03-02 17:43:00,62.1,53.0,29.76,WSW,248,1.3,2.7,72,0.00,,,0.00,WUHU216HW,2013-03-03 01:43:00,
2013-03-02 17:44:00,61.9,52.8,29.76,SW,225,1.1,2.2,72,0.00,,,0.00,WUHU216HW,2013-03-03 01:44:00,
2013-03-02 17:45:00,61.9,52.5,29.76,West,270,1.1,2.2,71,0.00,,,0.00,WUHU216HW,2013-03-03 01:45:00,
2013-03-02 17:46:00,61.7,52.3,29.76,WNW,293,1.1,2.2,71,0.00,,,0.00,WUHU216HW,2013-03-03 01:46:00,
2013-03-02 17:48:00,61.6,52.8,29.76,West,270,1.8,2.2,73,0.00,,,0.00,WUHU216HW,2013-03-03 01:48:00,
2013-03-02 17:49:00,61.6,52.8,29.76,WSW,248,0.9,2.2,73,0.00,,,0.00,WUHU216HW,2013-03-03 01:49:00,
2013-03-02 17:50:00,61.4,53.0,29.76,SW,225,1.1,2.2,74,0.00,,,0.00,WUHU216HW,2013-03-03 01:50:00,
2013-03-02 17:51:00,61.2,52.9,29.76,West,270,1.6,2.5,74,0.00,,,0.00,WUHU216HW,2013-03-03 01:51:00,
2013-03-02 17:53:00,61.2,52.9,29.76,SSW,203,2.0,2.5,74,0.00,,,0.00,WUHU216HW,2013-03-03 01:53:00,
2013-03-02 17:54:00,61.0,52.4,29.76,NNW,338,0.9,2.5,73,0.00,,,0.00,WUHU216HW,2013-03-03 01:54:00,
2013-03-02 17:55:00,61.0,52.4,29.76,North,0,0.0,2.5,73,0.00,,,0.00,WUHU216HW,2013-03-03 01:55:00,
2013-03-02 17:56:00,60.8,52.2,29.76,West,270,0.2,2.5,73,0.00,,,0.00,WUHU216HW,2013-03-03 01:56:00,
2013-03-02 17:58:00,60.8,51.8,29.76,SSW,203,0.0,2.5,72,0.00,,,0.00,WUHU216HW,2013-03-03 01:58:00,
2013-03-02 17:59:00,60.8,51.5,29.76,WNW,293,0.0,2.5,71,0.00,,,0.00,WUHU216HW,2013-03-03 01:59:00,
2013-03-02 18:00:00,60.7,51.3,29.76,WNW,293,0.0,2.5,71,0.00,,,0.00,WUHU216HW,2013-03-03 02:00:00,
2013-03-02 18:01:00,60.7,51.3,29.76,West,270,0.2,2.2,71,0.00,,,0.00,WUHU216HW,2013-03-03 02:01:00,
2013-03-02 18:03:00,60.7,50.9,29.76,WSW,248,1.1,2.0,70,0.00,,,0.00,WUHU216HW,2013-03-03 02:03:00,
2013-03-02 18:04:00,60.7,50.9,29.76,WSW,248,1.8,1.8,70,0.00,,,0.00,WUHU216HW,2013-03-03 02:04:00,
2013-03-02 18:05:00,60.7,51.7,29.76,SW,225,1.8,2.5,72,0.00,,,0.00,WUHU216HW,2013-03-03 02:05:00,
2013-03-02 18:06:00,60.7,51.3,29.76,WSW,248,2.0,2.5,71,0.00,,,0.00,WUHU216HW,2013-03-03 02:06:00,
2013-03-02 18:08:00,60.7,50.9,29.76,NNW,338,1.1,2.5,70,0.00,,,0.00,WUHU216HW,2013-03-03 02:08:00,
2013-03-02 18:09:00,60.5,51.1,29.76,SW,225,1.6,2.5,71,0.00,,,0.00,WUHU216HW,2013-03-03 02:09:00,
2013-03-02 18:10:00,60.5,51.1,29.76,WSW,248,1.3,2.5,71,0.00,,,0.00,WUHU216HW,2013-03-03 02:10:00,
2013-03-02 18:11:00,60.5,51.1,29.76,WSW,248,1.1,2.5,71,0.00,,,0.00,WUHU216HW,2013-03-03 02:11:00,
2013-03-02 18:13:00,60.5,50.8,29.76,WSW,248,0.4,2.5,70,0.00,,,0.00,WUHU216HW,2013-03-03 02:13:00,
2013-03-02 18:14:00,60.5,50.8,29.76,NW,315,0.0,2.5,70,0.00,,,0.00,WUHU216HW,2013-03-03 02:14:00,
2013-03-02 18:15:00,60.3,52.4,29.76,West,270,0.4,2.0,75,0.00,,,0.00,WUHU216HW,2013-03-03 02:15:00,
2013-03-02 18:16:00,60.3,52.4,29.76,SW,225,1.1,2.0,75,0.00,,,0.00,WUHU216HW,2013-03-03 02:16:00,
2013-03-02 18:18:00,60.1,53.3,29.76,WNW,293,1.6,1.8,78,0.00,,,0.00,WUHU216HW,2013-03-03 02:18:00,
2013-03-02 18:19:00,60.1,53.6,29.76,WSW,248,3.6,3.6,79,0.00,,,0.00,WUHU216HW,2013-03-03 02:19:00,
2013-03-02 18:20:00,59.9,54.2,29.76,WNW,293,1.3,3.6,81,0.00,,,0.00,WUHU216HW,2013-03-03 02:20:00,
2013-03-02 18:21:00,59.8,53.6,29.76,WSW,248,1.6,3.6,80,0.00,,,0.00,WUHU216HW,2013-03-03 02:21:00,
2013-03-02 18:23:00,59.8,54.0,29.76,WSW,248,1.3,3.6,81,0.00,,,0.00,WUHU216HW,2013-03-03 02:23:00,
2013-03-02 18:24:00,59.4,53.9,29.76,WSW,248,1.1,3.6,82,0.00,,,0.00,WUHU216HW,2013-03-03 02:24:00,
2013-03-02 18:25:00,59.4,54.3,29.77,West,270,1.1,4.3,83,0.00,,,0.00,WUHU216HW,2013-03-03 02:25:00,
2013-03-02 18:26:00,59.2,54.1,29.77,WSW,248,0.9,4.3,83,0.00,,,0.00,WUHU216HW,2013-03-03 02:26:00,
2013-03-02 18:28:00,59.0,53.9,29.77,WNW,293,1.3,4.3,83,0.00,,,0.00,WUHU216HW,2013-03-03 02:28:00,
2013-03-02 18:29:00,58.9,54.0,29.77,NNW,338,1.1,4.3,84,0.00,,,0.00,WUHU216HW,2013-03-03 02:29:00,
2013-03-02 18:30:00,58.9,53.7,29.77,West,270,0.4,4.3,83,0.00,,,0.00,WUHU216HW,2013-03-03 02:30:00,
2013-03-02 18:31:00,58.7,53.6,29.77,West,270,0.4,4.3,83,0.00,,,0.00,WUHU216HW,2013-03-03 02:31:00,
2013-03-02 18:33:00,58.7,53.6,29.77,NW,315,0.7,4.3,83,0.00,,,0.00,WUHU216HW,2013-03-03 02:33:00,
2013-03-02 18:34:00,58.5,53.6,29.77,NNW,338,2.5,4.3,84,0.00,,,0.00,WUHU216HW,2013-03-03 02:34:00,
2013-03-02 18:35:00,58.5,53.6,29.77,West,270,0.2,3.1,84,0.00,,,0.00,WUHU216HW,2013-03-03 02:35:00,
2013-03-02 18:36:00,58.3,53.5,29.77,WSW,248,1.8,3.1,84,0.00,,,0.00,WUHU216HW,2013-03-03 02:36:00,
2013-03-02 18:38:00,58.3,53.5,29.77,WNW,293,0.9,2.5,84,0.00,,,0.00,WUHU216HW,2013-03-03 02:38:00,
2013-03-02 18:39:00,58.1,53.3,29.77,West,270,1.6,2.5,84,0.00,,,0.00,WUHU216HW,2013-03-03 02:39:00,
2013-03-02 18:40:00,58.1,53.0,29.77,WNW,293,0.4,2.5,83,0.00,,,0.00,WUHU216HW,2013-03-03 02:40:00,
2013-03-02 18:41:00,58.0,52.8,29.77,WSW,248,0.4,2.5,83,0.00,,,0.00,WUHU216HW,2013-03-03 02:41:00,
2013-03-02 18:43:00,58.1,52.7,29.77,WSW,248,0.9,2.5,82,0.00,,,0.00,WUHU216HW,2013-03-03 02:43:00,
2013-03-02 18:44:00,58.0,52.8,29.77,WNW,293,0.4,2.5,83,0.00,,,0.00,WUHU216HW,2013-03-03 02:44:00,
2013-03-02 18:45:00,58.0,52.5,29.77,NNE,23,0.4,1.8,82,0.00,,,0.00,WUHU216HW,2013-03-03 02:45:00,
2013-03-02 18:46:00,58.0,52.8,29.77,West,270,0.2,1.8,83,0.00,,,0.00,WUHU216HW,2013-03-03 02:46:00,
2013-03-02 18:48:00,58.0,52.5,29.77,West,270,0.0,1.6,82,0.00,,,0.00,WUHU216HW,2013-03-03 02:48:00,
2013-03-02 18:49:00,58.0,52.2,29.77,West,270,0.0,1.1,81,0.00,,,0.00,WUHU216HW,2013-03-03 02:49:00,
2013-03-02 18:50:00,58.0,52.2,29.77,West,270,0.0,1.1,81,0.00,,,0.00,WUHU216HW,2013-03-03 02:50:00,
2013-03-02 18:51:00,58.0,51.8,29.77,WSW,248,0.0,1.1,80,0.00,,,0.00,WUHU216HW,2013-03-03 02:51:00,
2013-03-02 18:53:00,58.0,51.5,29.77,SW,225,0.4,1.1,79,0.00,,,0.00,WUHU216HW,2013-03-03 02:53:00,
2013-03-02 18:54:00,58.0,51.5,29.77,SW,225,0.0,1.1,79,0.00,,,0.00,WUHU216HW,2013-03-03 02:54:00,
2013-03-02 18:55:00,58.0,51.5,29.77,WSW,248,0.0,1.1,79,0.00,,,0.00,WUHU216HW,2013-03-03 02:55:00,
2013-03-02 18:56:00,57.8,51.3,29.77,WSW,248,0.0,1.1,79,0.00,,,0.00,WUHU216HW,2013-03-03 02:56:00,
2013-03-02 18:58:00,57.8,51.3,29.76,WSW,248,0.0,1.1,79,0.00,,,0.00,WUHU216HW,2013-03-03 02:58:00,
2013-03-02 18:59:00,57.8,50.9,29.77,WSW,248,0.0,1.1,78,0.00,,,0.00,WUHU216HW,2013-03-03 02:59:00,
2013-03-02 19:00:00,57.8,50.9,29.77,SW,225,0.0,1.1,78,0.00,,,0.00,WUHU216HW,2013-03-03 03:00:00,
2013-03-02 19:01:00,57.8,50.9,29.77,WSW,248,0.4,1.1,78,0.00,,,0.00,WUHU216HW,2013-03-03 03:01:00,
2013-03-02 19:03:00,57.8,50.6,29.77,WSW,248,0.0,0.4,77,0.00,,,0.00,WUHU216HW,2013-03-03 03:03:00,
2013-03-02 19:04:00,57.8,50.6,29.77,WSW,248,0.0,0.4,77,0.00,,,0.00,WUHU216HW,2013-03-03 03:04:00,
2013-03-02 19:05:00,57.8,50.6,29.77,WSW,248,0.0,0.4,77,0.00,,,0.00,WUHU216HW,2013-03-03 03:05:00,
2013-03-02 19:07:00,57.8,50.6,29.77,WSW,248,0.0,0.7,77,0.00,,,0.00,WUHU216HW,2013-03-03 03:07:00,
2013-03-02 19:08:00,57.8,50.2,29.77,SW,225,0.4,0.7,76,0.00,,,0.00,WUHU216HW,2013-03-03 03:08:00,
2013-03-02 19:09:00,57.6,50.0,29.77,South,180,1.1,1.3,76,0.00,,,0.00,WUHU216HW,2013-03-03 03:09:00,
2013-03-02 19:10:00,57.6,50.0,29.77,SW,225,2.0,2.0,76,0.00,,,0.00,WUHU216HW,2013-03-03 03:10:00,
2013-03-02 19:11:00,57.6,50.0,29.77,SW,225,1.1,2.0,76,0.00,,,0.00,WUHU216HW,2013-03-03 03:11:00,
2013-03-02 19:13:00,57.6,50.0,29.77,SW,225,1.3,2.0,76,0.00,,,0.00,WUHU216HW,2013-03-03 03:13:00,
2013-03-02 19:14:00,57.6,50.0,29.77,SW,225,1.1,2.0,76,0.00,,,0.00,WUHU216HW,2013-03-03 03:14:00,
2013-03-02 19:15:00,57.6,50.0,29.77,WSW,248,3.1,3.1,76,0.00,,,0.00,WUHU216HW,2013-03-03 03:15:00,
2013-03-02 19:16:00,57.6,50.0,29.77,WSW,248,1.1,3.1,76,0.00,,,0.00,WUHU216HW,2013-03-03 03:16:00,
2013-03-02 19:18:00,57.6,50.8,29.78,WSW,248,0.7,3.1,78,0.00,,,0.00,WUHU216HW,2013-03-03 03:18:00,
2013-03-02 19:19:00,57.6,51.1,29.78,NW,315,0.2,3.1,79,0.00,,,0.00,WUHU216HW,2013-03-03 03:19:00,
2013-03-02 19:20:00,57.6,51.1,29.78,West,270,0.0,3.1,79,0.00,,,0.00,WUHU216HW,2013-03-03 03:20:00,
2013-03-02 19:22:00,57.6,51.1,29.78,WSW,248,0.0,3.1,79,0.00,,,0.00,WUHU216HW,2013-03-03 03:22:00,
2013-03-02 19:23:00,57.6,50.8,29.78,SSW,203,0.0,3.1,78,0.00,,,0.00,WUHU216HW,2013-03-03 03:23:00,
2013-03-02 19:24:00,57.6,50.8,29.78,WSW,248,0.7,3.1,78,0.00,,,0.00,WUHU216HW,2013-03-03 03:24:00,
2013-03-02 19:25:00,57.6,51.1,29.78,SW,225,0.9,3.1,79,0.00,,,0.00,WUHU216HW,2013-03-03 03:25:00,
2013-03-02 19:26:00,57.4,51.7,29.78,WSW,248,0.0,1.1,81,0.00,,,0.00,WUHU216HW,2013-03-03 03:26:00,
2013-03-02 19:28:00,57.4,51.3,29.78,NNW,338,0.0,0.9,80,0.00,,,0.00,WUHU216HW,2013-03-03 03:28:00,
2013-03-02 19:29:00,57.4,51.7,29.78,WNW,293,0.7,1.1,81,0.00,,,0.00,WUHU216HW,2013-03-03 03:29:00,
2013-03-02 19:30:00,57.2,51.8,29.78,NW,315,0.7,1.1,82,0.00,,,0.00,WUHU216HW,2013-03-03 03:30:00,
2013-03-02 19:31:00,57.2,52.1,29.78,West,270,2.0,2.0,83,0.00,,,0.00,WUHU216HW,2013-03-03 03:31:00,
2013-03-02 19:33:00,57.2,52.1,29.78,West,270,0.4,2.0,83,0.00,,,0.00,WUHU216HW,2013-03-03 03:33:00,
2013-03-02 19:34:00,57.2,51.8,29.78,NW,315,0.0,2.0,82,0.00,,,0.00,WUHU216HW,2013-03-03 03:34:00,
2013-03-02 19:35:00,57.2,51.8,29.78,SW,225,0.4,2.0,82,0.00,,,0.00,WUHU216HW,2013-03-03 03:35:00,
2013-03-02 19:36:00,57.2,51.8,29.78,West,270,0.7,2.0,82,0.00,,,0.00,WUHU216HW,2013-03-03 03:36:00,
2013-03-02 19:38:00,57.2,52.1,29.78,WSW,248,0.9,2.0,83,0.00,,,0.00,WUHU216HW,2013-03-03 03:38:00,
2013-03-02 19:39:00,57.1,52.2,29.78,WSW,248,0.0,2.0,84,0.00,,,0.00,WUHU216HW,2013-03-03 03:39:00,
2013-03-02 19:40:00,57.1,52.2,29.78,West,270,0.0,2.0,84,0.00,,,0.00,WUHU216HW,2013-03-03 03:40:00,
2013-03-02 19:42:00,56.9,52.0,29.78,SW,225,1.8,2.0,84,0.00,,,0.00,WUHU216HW,2013-03-03 03:42:00,
2013-03-02 19:43:00,56.9,52.0,29.78,NW,315,0.7,2.0,84,0.00,,,0.00,WUHU216HW,2013-03-03 03:43:00,
2013-03-02 19:44:00,56.9,51.8,29.78,SW,225,0.9,2.0,83,0.00,,,0.00,WUHU216HW,2013-03-03 03:44:00,
2013-03-02 19:45:00,56.7,51.8,29.78,West,270,0.7,2.0,84,0.00,,,0.00,WUHU216HW,2013-03-03 03:45:00,
2013-03-02 19:46:00,56.7,51.8,29.78,West,270,1.6,2.0,84,0.00,,,0.00,WUHU216HW,2013-03-03 03:46:00,
2013-03-02 19:48:00,56.5,51.4,29.78,North,0,0.2,2.0,83,0.00,,,0.00,WUHU216HW,2013-03-03 03:48:00,
2013-03-02 19:49:00,56.5,51.7,29.78,West,270,0.2,2.0,84,0.00,,,0.00,WUHU216HW,2013-03-03 03:49:00,
2013-03-02 19:50:00,56.5,51.7,29.78,WSW,248,1.1,2.0,84,0.00,,,0.00,WUHU216HW,2013-03-03 03:50:00,
2013-03-02 19:51:00,56.5,51.7,29.78,West,270,0.0,1.6,84,0.00,,,0.00,WUHU216HW,2013-03-03 03:51:00,
2013-03-02 19:53:00,56.5,51.4,29.78,West,270,0.7,1.6,83,0.00,,,0.00,WUHU216HW,2013-03-03 03:53:00,
2013-03-02 19:54:00,56.5,51.7,29.78,NW,315,0.0,1.6,84,0.00,,,0.00,WUHU216HW,2013-03-03 03:54:00,
2013-03-02 19:55:00,56.5,51.4,29.78,North,0,0.4,1.6,83,0.00,,,0.00,WUHU216HW,2013-03-03 03:55:00,
2013-03-02 19:56:00,56.5,51.0,29.78,SW,225,0.4,1.6,82,0.00,,,0.00,WUHU216HW,2013-03-03 03:56:00,
2013-03-02 19:58:00,56.5,50.8,29.78,SW,225,0.2,1.3,81,0.00,,,0.00,WUHU216HW,2013-03-03 03:58:00,
2013-03-02 19:59:00,56.5,51.0,29.78,SW,225,0.0,1.3,82,0.00,,,0.00,WUHU216HW,2013-03-03 03:59:00,
2013-03-02 20:00:00,56.5,51.0,29.78,SW,225,0.0,1.3,82,0.00,,,0.00,WUHU216HW,2013-03-03 04:00:00,
2013-03-02 20:02:00,56.5,51.0,29.78,SW,225,0.0,1.3,82,0.00,,,0.00,WUHU216HW,2013-03-03 04:02:00,
2013-03-02 20:03:00,56.5,51.0,29.78,SW,225,0.0,0.7,82,0.00,,,0.00,WUHU216HW,2013-03-03 04:03:00,
2013-03-02 20:04:00,56.5,50.8,29.78,SW,225,0.0,0.7,81,0.00,,,0.00,WUHU216HW,2013-03-03 04:04:00,
2013-03-02 20:05:00,56.5,51.0,29.78,SW,225,0.0,0.7,82,0.00,,,0.00,WUHU216HW,2013-03-03 04:05:00,
2013-03-02 20:07:00,56.5,51.0,29.78,SW,225,0.0,0.7,82,0.00,,,0.00,WUHU216HW,2013-03-03 04:07:00,
2013-03-02 20:08:00,56.5,50.8,29.78,SW,225,0.0,0.2,81,0.00,,,0.00,WUHU216HW,2013-03-03 04:08:00,
2013-03-02 20:09:00,56.5,50.8,29.78,SW,225,0.0,0.0,81,0.00,,,0.00,WUHU216HW,2013-03-03 04:09:00,
2013-03-02 20:10:00,56.5,50.8,29.78,SW,225,0.0,0.0,81,0.00,,,0.00,WUHU216HW,2013-03-03 04:10:00,
2013-03-02 20:12:00,56.5,50.8,29.78,SW,225,0.9,0.9,81,0.00,,,0.00,WUHU216HW,2013-03-03 04:12:00,
2013-03-02 20:13:00,56.5,50.8,29.78,SW,225,0.2,0.9,81,0.00,,,0.00,WUHU216HW,2013-03-03 04:13:00,
2013-03-02 20:14:00,56.7,51.0,29.78,WSW,248,0.7,0.9,81,0.00,,,0.00,WUHU216HW,2013-03-03 04:14:00,
2013-03-02 20:15:00,56.5,50.8,29.78,WSW,248,0.0,0.9,81,0.00,,,0.00,WUHU216HW,2013-03-03 04:15:00,
2013-03-02 20:17:00,56.7,51.0,29.78,WSW,248,0.0,0.9,81,0.00,,,0.00,WUHU216HW,2013-03-03 04:17:00,
2013-03-02 20:18:00,56.7,51.0,29.78,SW,225,0.0,0.9,81,0.00,,,0.00,WUHU216HW,2013-03-03 04:18:00,
2013-03-02 20:19:00,56.7,51.0,29.78,SW,225,0.0,0.9,81,0.00,,,0.00,WUHU216HW,2013-03-03 04:19:00,
2013-03-02 20:20:00,56.7,51.0,29.78,SW,225,0.2,0.9,81,0.00,,,0.00,WUHU216HW,2013-03-03 04:20:00,
2013-03-02 20:26:00,56.7,50.6,29.78,SW,225,0.0,0.2,80,0.00,,,0.00,WUHU216HW,2013-03-03 04:26:00,
2013-03-02 20:31:00,56.7,51.0,29.78,East,90,1.3,1.8,81,0.00,,,0.00,WUHU216HW,2013-03-03 04:31:00,
2013-03-02 20:36:00,56.5,51.7,29.78,ESE,113,2.0,2.5,84,0.00,,,0.00,WUHU216HW,2013-03-03 04:36:00,
2013-03-02 20:41:00,56.3,50.9,29.78,ESE,113,0.9,2.5,82,0.00,,,0.00,WUHU216HW,2013-03-03 04:41:00,
2013-03-02 20:46:00,56.2,50.7,29.79,ESE,113,0.4,2.0,82,0.00,,,0.00,WUHU216HW,2013-03-03 04:46:00,
2013-03-02 20:51:00,56.2,50.7,29.79,East,90,0.0,0.9,82,0.00,,,0.00,WUHU216HW,2013-03-03 04:51:00,
2013-03-02 20:56:00,56.2,50.4,29.80,SE,135,0.7,1.1,81,0.00,,,0.00,WUHU216HW,2013-03-03 04:56:00,
2013-03-02 21:00:00,56.2,50.4,29.80,SSW,203,0.4,1.1,81,0.00,,,0.00,WUHU216HW,2013-03-03 05:00:00,
2013-03-02 21:20:00,55.8,50.3,29.80,WNW,293,0.4,0.4,82,0.00,,,0.00,WUHU216HW,2013-03-03 05:20:00,
2013-03-02 21:25:00,55.6,50.8,29.80,West,270,0.4,1.1,84,0.00,,,0.00,WUHU216HW,2013-03-03 05:25:00,
2013-03-02 21:30:00,55.4,50.6,29.80,WSW,248,0.4,1.1,84,0.00,,,0.00,WUHU216HW,2013-03-03 05:30:00,
2013-03-02 21:35:00,55.4,51.3,29.80,NW,315,0.0,1.8,86,0.00,,,0.00,WUHU216HW,2013-03-03 05:35:00,
2013-03-02 21:40:00,55.3,51.8,29.80,WNW,293,1.8,2.5,88,0.00,,,0.00,WUHU216HW,2013-03-03 05:40:00,
2013-03-02 21:45:00,55.1,51.2,29.80,WSW,248,0.0,2.7,87,0.00,,,0.00,WUHU216HW,2013-03-03 05:45:00,
2013-03-02 21:50:00,55.3,51.1,29.79,WSW,248,0.0,2.7,86,0.00,,,0.00,WUHU216HW,2013-03-03 05:50:00,
2013-03-02 21:55:00,55.1,50.6,29.79,NW,315,0.0,1.1,85,0.00,,,0.00,WUHU216HW,2013-03-03 05:55:00,
2013-03-02 22:00:00,55.3,50.5,29.79,WNW,293,0.0,1.1,84,0.00,,,0.00,WUHU216HW,2013-03-03 06:00:00,
2013-03-02 22:05:00,55.3,50.1,29.79,NW,315,0.0,0.2,83,0.00,,,0.00,WUHU216HW,2013-03-03 06:05:00,
2013-03-02 22:10:00,55.1,50.0,29.79,NW,315,0.0,0.2,83,0.00,,,0.00,WUHU216HW,2013-03-03 06:10:00,
2013-03-02 22:15:00,55.3,50.5,29.79,WSW,248,0.4,0.7,84,0.00,,,0.00,WUHU216HW,2013-03-03 06:15:00,
2013-03-02 22:20:00,55.3,50.8,29.79,West,270,1.1,1.1,85,0.00,,,0.00,WUHU216HW,2013-03-03 06:20:00,
2013-03-02 22:25:00,55.1,50.3,29.79,NW,315,0.0,1.1,84,0.00,,,0.00,WUHU216HW,2013-03-03 06:25:00,
2013-03-02 22:30:00,55.1,50.3,29.79,WSW,248,0.4,1.1,84,0.00,,,0.00,WUHU216HW,2013-03-03 06:30:00,
2013-03-02 22:35:00,55.3,50.1,29.79,WSW,248,0.0,1.1,83,0.00,,,0.00,WUHU216HW,2013-03-03 06:35:00,
2013-03-02 22:40:00,55.3,50.1,29.78,WSW,248,0.0,1.1,83,0.00,,,0.00,WUHU216HW,2013-03-03 06:40:00,
2013-03-02 22:45:00,55.3,50.1,29.79,WSW,248,0.0,0.0,83,0.00,,,0.00,WUHU216HW,2013-03-03 06:45:00,
2013-03-02 22:50:00,55.3,50.1,29.78,WSW,248,0.0,0.2,83,0.00,,,0.00,WUHU216HW,2013-03-03 06:50:00,
2013-03-02 22:55:00,55.3,50.1,29.78,SE,135,0.0,0.2,83,0.00,,,0.00,WUHU216HW,2013-03-03 06:55:00,
2013-03-02 23:00:00,55.1,50.0,29.78,SE,135,0.0,0.0,83,0.00,,,0.00,WUHU216HW,2013-03-03 07:00:00,
2013-03-02 23:05:00,55.1,51.2,29.77,ENE,68,0.2,1.6,87,0.00,,,0.00,WUHU216HW,2013-03-03 07:05:00,
2013-03-02 23:10:00,55.1,51.0,29.78,NNE,23,0.4,1.6,86,0.00,,,0.00,WUHU216HW,2013-03-03 07:10:00,
2013-03-02 23:15:00,55.1,51.0,29.78,North,0,0.4,1.8,86,0.00,,,0.00,WUHU216HW,2013-03-03 07:15:00,
2013-03-02 23:20:00,55.1,51.0,29.78,WSW,248,0.0,1.8,86,0.00,,,0.00,WUHU216HW,2013-03-03 07:20:00,
2013-03-02 23:25:00,55.3,50.5,29.78,SW,225,1.1,1.6,84,0.00,,,0.00,WUHU216HW,2013-03-03 07:25:00,
2013-03-02 23:30:00,55.3,50.5,29.79,South,180,0.2,2.5,84,0.00,,,0.00,WUHU216HW,2013-03-03 07:30:00,
2013-03-02 23:35:00,55.3,50.5,29.78,WNW,293,2.9,2.9,84,0.00,,,0.00,WUHU216HW,2013-03-03 07:35:00,
2013-03-02 23:40:00,55.3,51.1,29.77,SE,135,2.5,3.6,86,0.00,,,0.00,WUHU216HW,2013-03-03 07:40:00,
2013-03-02 23:45:00,55.3,51.8,29.76,ENE,68,3.4,4.0,88,0.00,,,0.00,WUHU216HW,2013-03-03 07:45:00,
2013-03-02 23:50:00,55.1,51.0,29.76,WNW,293,0.2,4.5,86,0.00,,,0.00,WUHU216HW,2013-03-03 07:50:00,
2013-03-02 23:55:00,55.3,50.8,29.77,West,270,1.6,4.5,85,0.00,,,0.00,WUHU216HW,2013-03-03 07:55:00,